<?xml version="1.0" encoding="UTF-8" standalone="no" ?>
<gpx xmlns="http://www.topografix.com/GPX/1/1" xmlns:xsi="http://www.w3.org/2001/XMLSchema-instance" xsi:schemaLocation="http://www.topografix.com/GPX/1/1 http://www.topografix.com/GPX/1/1/gpx.xsd" version="1.1" creator="VisuGPX - https://www.visugpx.com">
  <metadata>
    <name>Le buisson 35 Km</name>
  </metadata>
  <trk>
    <name><![CDATA[Le buisson 35 Km]]></name>
    <trkseg>
      <trkpt lat="44.81841" lon="0.93836">
        <ele>137.02734375</ele>
      </trkpt>
      <trkpt lat="44.81809" lon="0.93791">
        <ele>136.41796875</ele>
      </trkpt>
      <trkpt lat="44.8177" lon="0.93751">
        <ele>136.390625</ele>
      </trkpt>
      <trkpt lat="44.81711" lon="0.93715">
        <ele>137.29296875</ele>
      </trkpt>
      <trkpt lat="44.81701" lon="0.93708">
        <ele>138</ele>
        <time>2019-06-01T09:50:02Z</time>
      </trkpt>
      <trkpt lat="44.81643" lon="0.93684">
        <ele>145</ele>
        <time>2019-06-01T09:49:48Z</time>
      </trkpt>
      <trkpt lat="44.81627" lon="0.9372">
        <ele>149</ele>
        <time>2019-06-01T09:49:41Z</time>
      </trkpt>
      <trkpt lat="44.81597" lon="0.938">
        <ele>155</ele>
        <time>2019-06-01T09:49:26Z</time>
      </trkpt>
      <trkpt lat="44.81499" lon="0.9377">
        <ele>164</ele>
        <time>2019-06-01T09:49:03Z</time>
      </trkpt>
      <trkpt lat="44.81452" lon="0.9374">
        <ele>167</ele>
        <time>2019-06-01T09:48:51Z</time>
      </trkpt>
      <trkpt lat="44.81375" lon="0.93678">
        <ele>174</ele>
        <time>2019-06-01T09:48:30Z</time>
      </trkpt>
      <trkpt lat="44.81325" lon="0.93649">
        <ele>179</ele>
        <time>2019-06-01T09:48:17Z</time>
      </trkpt>
      <trkpt lat="44.81119" lon="0.93597">
        <ele>181</ele>
        <time>2019-06-01T09:47:28Z</time>
      </trkpt>
      <trkpt lat="44.81073" lon="0.93563">
        <ele>181</ele>
        <time>2019-06-01T09:47:16Z</time>
      </trkpt>
      <trkpt lat="44.81031" lon="0.9354">
        <ele>184</ele>
        <time>2019-06-01T09:47:06Z</time>
      </trkpt>
      <trkpt lat="44.80931" lon="0.93497">
        <ele>192</ele>
        <time>2019-06-01T09:46:41Z</time>
      </trkpt>
      <trkpt lat="44.80868" lon="0.93501">
        <ele>195</ele>
        <time>2019-06-01T09:46:27Z</time>
      </trkpt>
      <trkpt lat="44.8081" lon="0.93501">
        <ele>196</ele>
        <time>2019-06-01T09:46:13Z</time>
      </trkpt>
      <trkpt lat="44.8074" lon="0.93484">
        <ele>197</ele>
        <time>2019-06-01T09:45:56Z</time>
      </trkpt>
      <trkpt lat="44.80638" lon="0.93478">
        <ele>201</ele>
        <time>2019-06-01T09:45:33Z</time>
      </trkpt>
      <trkpt lat="44.80576" lon="0.93458">
        <ele>206</ele>
        <time>2019-06-01T09:45:18Z</time>
      </trkpt>
      <trkpt lat="44.80519" lon="0.93454">
        <ele>209</ele>
        <time>2019-06-01T09:45:04Z</time>
      </trkpt>
      <trkpt lat="44.80382" lon="0.93435">
        <ele>219</ele>
        <time>2019-06-01T09:44:32Z</time>
      </trkpt>
      <trkpt lat="44.80338" lon="0.93415">
        <ele>220</ele>
        <time>2019-06-01T09:44:21Z</time>
      </trkpt>
      <trkpt lat="44.80312" lon="0.93394">
        <ele>217</ele>
        <time>2019-06-01T09:44:14Z</time>
      </trkpt>
      <trkpt lat="44.80299" lon="0.93339">
        <ele>217</ele>
        <time>2019-06-01T09:44:05Z</time>
      </trkpt>
      <trkpt lat="44.80275" lon="0.93082">
        <ele>208</ele>
        <time>2019-06-01T09:43:22Z</time>
      </trkpt>
      <trkpt lat="44.80264" lon="0.93055">
        <ele>207</ele>
        <time>2019-06-01T09:43:17Z</time>
      </trkpt>
      <trkpt lat="44.8024" lon="0.93022">
        <ele>205</ele>
        <time>2019-06-01T09:43:09Z</time>
      </trkpt>
      <trkpt lat="44.80225" lon="0.92994">
        <ele>204</ele>
        <time>2019-06-01T09:43:03Z</time>
      </trkpt>
      <trkpt lat="44.80195" lon="0.92969">
        <ele>202</ele>
        <time>2019-06-01T09:42:55Z</time>
      </trkpt>
      <trkpt lat="44.8014" lon="0.92907">
        <ele>201</ele>
        <time>2019-06-01T09:42:38Z</time>
      </trkpt>
      <trkpt lat="44.80083" lon="0.9287">
        <ele>201</ele>
        <time>2019-06-01T09:42:24Z</time>
      </trkpt>
      <trkpt lat="44.80063" lon="0.92847">
        <ele>202</ele>
        <time>2019-06-01T09:42:18Z</time>
      </trkpt>
      <trkpt lat="44.80047" lon="0.92823">
        <ele>204</ele>
        <time>2019-06-01T09:42:12Z</time>
      </trkpt>
      <trkpt lat="44.80025" lon="0.92722">
        <ele>208</ele>
        <time>2019-06-01T09:41:55Z</time>
      </trkpt>
      <trkpt lat="44.80008" lon="0.92698">
        <ele>210</ele>
        <time>2019-06-01T09:41:49Z</time>
      </trkpt>
      <trkpt lat="44.79972" lon="0.92667">
        <ele>213</ele>
        <time>2019-06-01T09:41:39Z</time>
      </trkpt>
      <trkpt lat="44.79941" lon="0.92629">
        <ele>215</ele>
        <time>2019-06-01T09:41:30Z</time>
      </trkpt>
      <trkpt lat="44.79907" lon="0.92597">
        <ele>217</ele>
        <time>2019-06-01T09:41:20Z</time>
      </trkpt>
      <trkpt lat="44.79896" lon="0.92565">
        <ele>218</ele>
        <time>2019-06-01T09:41:14Z</time>
      </trkpt>
      <trkpt lat="44.79878" lon="0.92535">
        <ele>220</ele>
        <time>2019-06-01T09:41:08Z</time>
      </trkpt>
      <trkpt lat="44.79852" lon="0.92453">
        <ele>228</ele>
        <time>2019-06-01T09:40:53Z</time>
      </trkpt>
      <trkpt lat="44.79781" lon="0.92423">
        <ele>227</ele>
        <time>2019-06-01T09:40:36Z</time>
      </trkpt>
      <trkpt lat="44.79757" lon="0.92395">
        <ele>228</ele>
        <time>2019-06-01T09:40:28Z</time>
      </trkpt>
      <trkpt lat="44.79723" lon="0.92317">
        <ele>231</ele>
        <time>2019-06-01T09:40:13Z</time>
      </trkpt>
      <trkpt lat="44.79687" lon="0.92247">
        <ele>231</ele>
        <time>2019-06-01T09:39:59Z</time>
      </trkpt>
      <trkpt lat="44.79651" lon="0.92195">
        <ele>231</ele>
        <time>2019-06-01T09:39:47Z</time>
      </trkpt>
      <trkpt lat="44.79583" lon="0.92135">
        <ele>227</ele>
        <time>2019-06-01T09:39:28Z</time>
      </trkpt>
      <trkpt lat="44.79518" lon="0.92049">
        <ele>226</ele>
        <time>2019-06-01T09:39:07Z</time>
      </trkpt>
      <trkpt lat="44.79488" lon="0.92026">
        <ele>224</ele>
        <time>2019-06-01T09:38:59Z</time>
      </trkpt>
      <trkpt lat="44.79445" lon="0.92031">
        <ele>222</ele>
        <time>2019-06-01T09:38:49Z</time>
      </trkpt>
      <trkpt lat="44.79412" lon="0.92031">
        <ele>221</ele>
        <time>2019-06-01T09:38:41Z</time>
      </trkpt>
      <trkpt lat="44.794" lon="0.92044">
        <ele>221</ele>
        <time>2019-06-01T09:38:38Z</time>
      </trkpt>
      <trkpt lat="44.79389" lon="0.9208">
        <ele>219</ele>
        <time>2019-06-01T09:38:31Z</time>
      </trkpt>
      <trkpt lat="44.79393" lon="0.92114">
        <ele>218</ele>
        <time>2019-06-01T09:38:26Z</time>
      </trkpt>
      <trkpt lat="44.79394" lon="0.92161">
        <ele>217</ele>
        <time>2019-06-01T09:38:18Z</time>
      </trkpt>
      <trkpt lat="44.79421" lon="0.92205">
        <ele>212</ele>
        <time>2019-06-01T09:38:08Z</time>
      </trkpt>
      <trkpt lat="44.79447" lon="0.92254">
        <ele>208</ele>
        <time>2019-06-01T09:37:58Z</time>
      </trkpt>
      <trkpt lat="44.79454" lon="0.9233">
        <ele>205</ele>
        <time>2019-06-01T09:37:45Z</time>
      </trkpt>
      <trkpt lat="44.7947" lon="0.92397">
        <ele>199</ele>
        <time>2019-06-01T09:37:34Z</time>
      </trkpt>
      <trkpt lat="44.79475" lon="0.92454">
        <ele>193</ele>
        <time>2019-06-01T09:37:24Z</time>
      </trkpt>
      <trkpt lat="44.79488" lon="0.92535">
        <ele>187</ele>
        <time>2019-06-01T09:37:10Z</time>
      </trkpt>
      <trkpt lat="44.79499" lon="0.92673">
        <ele>176</ele>
        <time>2019-06-01T09:36:47Z</time>
      </trkpt>
      <trkpt lat="44.79496" lon="0.9272">
        <ele>173</ele>
        <time>2019-06-01T09:36:40Z</time>
      </trkpt>
      <trkpt lat="44.79484" lon="0.92761">
        <ele>172</ele>
        <time>2019-06-01T09:36:32Z</time>
      </trkpt>
      <trkpt lat="44.79431" lon="0.92867">
        <ele>168</ele>
        <time>2019-06-01T09:36:11Z</time>
      </trkpt>
      <trkpt lat="44.79417" lon="0.92864">
        <ele>168</ele>
        <time>2019-06-01T09:36:07Z</time>
      </trkpt>
      <trkpt lat="44.79375" lon="0.9283">
        <ele>175</ele>
        <time>2019-06-01T09:35:56Z</time>
      </trkpt>
      <trkpt lat="44.7941" lon="0.92906">
        <ele>166</ele>
        <time>2019-06-01T09:35:41Z</time>
      </trkpt>
      <trkpt lat="44.79439" lon="0.92957">
        <ele>163</ele>
        <time>2019-06-01T09:35:30Z</time>
      </trkpt>
      <trkpt lat="44.7945" lon="0.9299">
        <ele>162</ele>
        <time>2019-06-01T09:35:24Z</time>
      </trkpt>
      <trkpt lat="44.79426" lon="0.93037">
        <ele>160</ele>
        <time>2019-06-01T09:35:15Z</time>
      </trkpt>
      <trkpt lat="44.7941" lon="0.93088">
        <ele>159</ele>
        <time>2019-06-01T09:35:05Z</time>
      </trkpt>
      <trkpt lat="44.79345" lon="0.93232">
        <ele>153</ele>
        <time>2019-06-01T09:34:37Z</time>
      </trkpt>
      <trkpt lat="44.79326" lon="0.9329">
        <ele>150</ele>
        <time>2019-06-01T09:34:27Z</time>
      </trkpt>
      <trkpt lat="44.79307" lon="0.93339">
        <ele>151</ele>
        <time>2019-06-01T09:34:17Z</time>
      </trkpt>
      <trkpt lat="44.7931" lon="0.93372">
        <ele>151</ele>
        <time>2019-06-01T09:34:12Z</time>
      </trkpt>
      <trkpt lat="44.79311" lon="0.93507">
        <ele>149</ele>
        <time>2019-06-01T09:33:49Z</time>
      </trkpt>
      <trkpt lat="44.79317" lon="0.93606">
        <ele>143</ele>
        <time>2019-06-01T09:33:33Z</time>
      </trkpt>
      <trkpt lat="44.79296" lon="0.93631">
        <ele>142</ele>
        <time>2019-06-01T09:33:27Z</time>
      </trkpt>
      <trkpt lat="44.79269" lon="0.93657">
        <ele>141</ele>
        <time>2019-06-01T09:33:19Z</time>
      </trkpt>
      <trkpt lat="44.79249" lon="0.93668">
        <ele>142</ele>
        <time>2019-06-01T09:33:14Z</time>
      </trkpt>
      <trkpt lat="44.7923" lon="0.93661">
        <ele>145</ele>
        <time>2019-06-01T09:33:09Z</time>
      </trkpt>
      <trkpt lat="44.79207" lon="0.93676">
        <ele>147</ele>
        <time>2019-06-01T09:33:03Z</time>
      </trkpt>
      <trkpt lat="44.79183" lon="0.93688">
        <ele>149</ele>
        <time>2019-06-01T09:32:57Z</time>
      </trkpt>
      <trkpt lat="44.79127" lon="0.93777">
        <ele>149</ele>
        <time>2019-06-01T09:32:38Z</time>
      </trkpt>
      <trkpt lat="44.79127" lon="0.93795">
        <ele>148</ele>
        <time>2019-06-01T09:32:35Z</time>
      </trkpt>
      <trkpt lat="44.79143" lon="0.93823">
        <ele>146</ele>
        <time>2019-06-01T09:32:29Z</time>
      </trkpt>
      <trkpt lat="44.79149" lon="0.93863">
        <ele>148</ele>
        <time>2019-06-01T09:32:22Z</time>
      </trkpt>
      <trkpt lat="44.79118" lon="0.93909">
        <ele>152</ele>
        <time>2019-06-01T09:32:12Z</time>
      </trkpt>
      <trkpt lat="44.79117" lon="0.93918">
        <ele>153</ele>
        <time>2019-06-01T09:32:10Z</time>
      </trkpt>
      <trkpt lat="44.79155" lon="0.94055">
        <ele>168</ele>
        <time>2019-06-01T09:31:46Z</time>
      </trkpt>
      <trkpt lat="44.79205" lon="0.94039">
        <ele>169</ele>
        <time>2019-06-01T09:31:34Z</time>
      </trkpt>
      <trkpt lat="44.79261" lon="0.93993">
        <ele>165</ele>
        <time>2019-06-01T09:31:19Z</time>
      </trkpt>
      <trkpt lat="44.79316" lon="0.94018">
        <ele>168</ele>
        <time>2019-06-01T09:31:05Z</time>
      </trkpt>
      <trkpt lat="44.79336" lon="0.94044">
        <ele>169</ele>
        <time>2019-06-01T09:30:59Z</time>
      </trkpt>
      <trkpt lat="44.79343" lon="0.94073">
        <ele>170</ele>
        <time>2019-06-01T09:30:54Z</time>
      </trkpt>
      <trkpt lat="44.79379" lon="0.94183">
        <ele>168</ele>
        <time>2019-06-01T09:30:34Z</time>
      </trkpt>
      <trkpt lat="44.79352" lon="0.94268">
        <ele>169</ele>
        <time>2019-06-01T09:30:18Z</time>
      </trkpt>
      <trkpt lat="44.79347" lon="0.94338">
        <ele>165</ele>
        <time>2019-06-01T09:30:06Z</time>
      </trkpt>
      <trkpt lat="44.79318" lon="0.94395">
        <ele>168</ele>
        <time>2019-06-01T09:29:55Z</time>
      </trkpt>
      <trkpt lat="44.79322" lon="0.94459">
        <ele>170</ele>
        <time>2019-06-01T09:29:44Z</time>
      </trkpt>
      <trkpt lat="44.79327" lon="0.94483">
        <ele>171</ele>
        <time>2019-06-01T09:29:40Z</time>
      </trkpt>
      <trkpt lat="44.79338" lon="0.94502">
        <ele>172</ele>
        <time>2019-06-01T09:29:36Z</time>
      </trkpt>
      <trkpt lat="44.79348" lon="0.94505">
        <ele>173</ele>
        <time>2019-06-01T09:29:34Z</time>
      </trkpt>
      <trkpt lat="44.79366" lon="0.94495">
        <ele>172</ele>
        <time>2019-06-01T09:29:29Z</time>
      </trkpt>
      <trkpt lat="44.79389" lon="0.94509">
        <ele>174</ele>
        <time>2019-06-01T09:29:23Z</time>
      </trkpt>
      <trkpt lat="44.79468" lon="0.94535">
        <ele>174</ele>
        <time>2019-06-01T09:29:04Z</time>
      </trkpt>
      <trkpt lat="44.7948" lon="0.94549">
        <ele>175</ele>
        <time>2019-06-01T09:29:01Z</time>
      </trkpt>
      <trkpt lat="44.7951" lon="0.94613">
        <ele>179</ele>
        <time>2019-06-01T09:28:48Z</time>
      </trkpt>
      <trkpt lat="44.79545" lon="0.94704">
        <ele>179</ele>
        <time>2019-06-01T09:28:31Z</time>
      </trkpt>
      <trkpt lat="44.79561" lon="0.94733">
        <ele>180</ele>
        <time>2019-06-01T09:28:25Z</time>
      </trkpt>
      <trkpt lat="44.79574" lon="0.94736">
        <ele>179</ele>
        <time>2019-06-01T09:28:22Z</time>
      </trkpt>
      <trkpt lat="44.7961" lon="0.94752">
        <ele>179</ele>
        <time>2019-06-01T09:28:13Z</time>
      </trkpt>
      <trkpt lat="44.79606" lon="0.94802">
        <ele>181</ele>
        <time>2019-06-01T09:28:04Z</time>
      </trkpt>
      <trkpt lat="44.79608" lon="0.94885">
        <ele>184</ele>
        <time>2019-06-01T09:27:51Z</time>
      </trkpt>
      <trkpt lat="44.79571" lon="0.94953">
        <ele>192</ele>
        <time>2019-06-01T09:27:36Z</time>
      </trkpt>
      <trkpt lat="44.79561" lon="0.9496">
        <ele>194</ele>
        <time>2019-06-01T09:27:34Z</time>
      </trkpt>
      <trkpt lat="44.79514" lon="0.94981">
        <ele>202</ele>
        <time>2019-06-01T09:27:22Z</time>
      </trkpt>
      <trkpt lat="44.79504" lon="0.94974">
        <ele>203</ele>
        <time>2019-06-01T09:27:20Z</time>
      </trkpt>
      <trkpt lat="44.79483" lon="0.94965">
        <ele>207</ele>
        <time>2019-06-01T09:27:15Z</time>
      </trkpt>
      <trkpt lat="44.79463" lon="0.94931">
        <ele>208</ele>
        <time>2019-06-01T09:27:07Z</time>
      </trkpt>
      <trkpt lat="44.79428" lon="0.94892">
        <ele>210</ele>
        <time>2019-06-01T09:26:57Z</time>
      </trkpt>
      <trkpt lat="44.79406" lon="0.94888">
        <ele>213</ele>
        <time>2019-06-01T09:26:52Z</time>
      </trkpt>
      <trkpt lat="44.79379" lon="0.94899">
        <ele>217</ele>
        <time>2019-06-01T09:26:45Z</time>
      </trkpt>
      <trkpt lat="44.79342" lon="0.94925">
        <ele>225</ele>
        <time>2019-06-01T09:26:35Z</time>
      </trkpt>
      <trkpt lat="44.7927" lon="0.94957">
        <ele>232</ele>
        <time>2019-06-01T09:26:18Z</time>
      </trkpt>
      <trkpt lat="44.79206" lon="0.94968">
        <ele>235</ele>
        <time>2019-06-01T09:26:03Z</time>
      </trkpt>
      <trkpt lat="44.79132" lon="0.94972">
        <ele>236</ele>
        <time>2019-06-01T09:25:45Z</time>
      </trkpt>
      <trkpt lat="44.79104" lon="0.95029">
        <ele>238</ele>
        <time>2019-06-01T09:25:34Z</time>
      </trkpt>
      <trkpt lat="44.79036" lon="0.95101">
        <ele>242</ele>
        <time>2019-06-01T09:25:14Z</time>
      </trkpt>
      <trkpt lat="44.79023" lon="0.95107">
        <ele>242</ele>
        <time>2019-06-01T09:25:11Z</time>
      </trkpt>
      <trkpt lat="44.78989" lon="0.95135">
        <ele>244</ele>
        <time>2019-06-01T09:25:02Z</time>
      </trkpt>
      <trkpt lat="44.78976" lon="0.95138">
        <ele>244</ele>
        <time>2019-06-01T09:24:59Z</time>
      </trkpt>
      <trkpt lat="44.7896" lon="0.95133">
        <ele>244</ele>
        <time>2019-06-01T09:24:55Z</time>
      </trkpt>
      <trkpt lat="44.78923" lon="0.95143">
        <ele>245</ele>
        <time>2019-06-01T09:24:46Z</time>
      </trkpt>
      <trkpt lat="44.78889" lon="0.95155">
        <ele>245</ele>
        <time>2019-06-01T09:24:38Z</time>
      </trkpt>
      <trkpt lat="44.78875" lon="0.95167">
        <ele>246</ele>
        <time>2019-06-01T09:24:34Z</time>
      </trkpt>
      <trkpt lat="44.78857" lon="0.95172">
        <ele>245</ele>
        <time>2019-06-01T09:24:30Z</time>
      </trkpt>
      <trkpt lat="44.78827" lon="0.95141">
        <ele>244</ele>
        <time>2019-06-01T09:24:21Z</time>
      </trkpt>
      <trkpt lat="44.78812" lon="0.95133">
        <ele>244</ele>
        <time>2019-06-01T09:24:17Z</time>
      </trkpt>
      <trkpt lat="44.7878" lon="0.9512">
        <ele>244</ele>
        <time>2019-06-01T09:24:10Z</time>
      </trkpt>
      <trkpt lat="44.78764" lon="0.95123">
        <ele>244</ele>
        <time>2019-06-01T09:24:06Z</time>
      </trkpt>
      <trkpt lat="44.78741" lon="0.95148">
        <ele>244</ele>
        <time>2019-06-01T09:23:59Z</time>
      </trkpt>
      <trkpt lat="44.78731" lon="0.95209">
        <ele>243</ele>
        <time>2019-06-01T09:23:49Z</time>
      </trkpt>
      <trkpt lat="44.78514" lon="0.9487">
        <ele>235</ele>
        <time>2019-06-01T09:22:33Z</time>
      </trkpt>
      <trkpt lat="44.78453" lon="0.94798">
        <ele>233</ele>
        <time>2019-06-01T09:22:14Z</time>
      </trkpt>
      <trkpt lat="44.78446" lon="0.94777">
        <ele>233</ele>
        <time>2019-06-01T09:22:11Z</time>
      </trkpt>
      <trkpt lat="44.78448" lon="0.94698">
        <ele>232</ele>
        <time>2019-06-01T09:21:57Z</time>
      </trkpt>
      <trkpt lat="44.78443" lon="0.94691">
        <ele>232</ele>
        <time>2019-06-01T09:21:56Z</time>
      </trkpt>
      <trkpt lat="44.78426" lon="0.94678">
        <ele>232</ele>
        <time>2019-06-01T09:21:51Z</time>
      </trkpt>
      <trkpt lat="44.78409" lon="0.94633">
        <ele>232</ele>
        <time>2019-06-01T09:21:43Z</time>
      </trkpt>
      <trkpt lat="44.78408" lon="0.94612">
        <ele>232</ele>
        <time>2019-06-01T09:21:39Z</time>
      </trkpt>
      <trkpt lat="44.78399" lon="0.94584">
        <ele>232</ele>
        <time>2019-06-01T09:21:34Z</time>
      </trkpt>
      <trkpt lat="44.78399" lon="0.94497">
        <ele>232</ele>
        <time>2019-06-01T09:21:20Z</time>
      </trkpt>
      <trkpt lat="44.78376" lon="0.94444">
        <ele>233</ele>
        <time>2019-06-01T09:21:09Z</time>
      </trkpt>
      <trkpt lat="44.78296" lon="0.94438">
        <ele>235</ele>
        <time>2019-06-01T09:20:51Z</time>
      </trkpt>
      <trkpt lat="44.77846" lon="0.94373">
        <ele>235</ele>
        <time>2019-06-01T09:19:05Z</time>
      </trkpt>
      <trkpt lat="44.77771" lon="0.94364">
        <ele>234</ele>
        <time>2019-06-01T09:18:48Z</time>
      </trkpt>
      <trkpt lat="44.77708" lon="0.94305">
        <ele>233</ele>
        <time>2019-06-01T09:18:30Z</time>
      </trkpt>
      <trkpt lat="44.77605" lon="0.94217">
        <ele>232</ele>
        <time>2019-06-01T09:18:02Z</time>
      </trkpt>
      <trkpt lat="44.77518" lon="0.94104">
        <ele>233</ele>
        <time>2019-06-01T09:17:34Z</time>
      </trkpt>
      <trkpt lat="44.77506" lon="0.94091">
        <ele>230.446259</ele>
        <time>2017-07-01T14:31:20Z</time>
      </trkpt>
      <trkpt lat="44.77405" lon="0.93944">
        <ele>226.989487</ele>
        <time>2017-07-01T14:31:46Z</time>
      </trkpt>
      <trkpt lat="44.774" lon="0.93939">
        <ele>226.80719</ele>
        <time>2017-07-01T14:31:47Z</time>
      </trkpt>
      <trkpt lat="44.77381" lon="0.93934">
        <ele>226.291153</ele>
        <time>2017-07-01T14:31:50Z</time>
      </trkpt>
      <trkpt lat="44.77336" lon="0.93944">
        <ele>225.040314</ele>
        <time>2017-07-01T14:31:56Z</time>
      </trkpt>
      <trkpt lat="44.77316" lon="0.93955">
        <ele>224.192352</ele>
        <time>2017-07-01T14:31:59Z</time>
      </trkpt>
      <trkpt lat="44.77251" lon="0.94004">
        <ele>221.31015</ele>
        <time>2017-07-01T14:32:11Z</time>
      </trkpt>
      <trkpt lat="44.77229" lon="0.94016">
        <ele>220.95636</ele>
        <time>2017-07-01T14:32:15Z</time>
      </trkpt>
      <trkpt lat="44.77188" lon="0.94048">
        <ele>219.138107</ele>
        <time>2017-07-01T14:32:23Z</time>
      </trkpt>
      <trkpt lat="44.77171" lon="0.94055">
        <ele>218.332947</ele>
        <time>2017-07-01T14:32:26Z</time>
      </trkpt>
      <trkpt lat="44.77155" lon="0.94056">
        <ele>217.949066</ele>
        <time>2017-07-01T14:32:29Z</time>
      </trkpt>
      <trkpt lat="44.77066" lon="0.94047">
        <ele>216.600998</ele>
        <time>2017-07-01T14:32:44Z</time>
      </trkpt>
      <trkpt lat="44.77033" lon="0.94047">
        <ele>215.401337</ele>
        <time>2017-07-01T14:32:50Z</time>
      </trkpt>
      <trkpt lat="44.76965" lon="0.94057">
        <ele>211.59993</ele>
        <time>2017-07-01T14:33:00Z</time>
      </trkpt>
      <trkpt lat="44.76859" lon="0.94061">
        <ele>205.31636</ele>
        <time>2017-07-01T14:33:15Z</time>
      </trkpt>
      <trkpt lat="44.76828" lon="0.94058">
        <ele>203.514404</ele>
        <time>2017-07-01T14:33:19Z</time>
      </trkpt>
      <trkpt lat="44.76785" lon="0.94037">
        <ele>202.267502</ele>
        <time>2017-07-01T14:33:25Z</time>
      </trkpt>
      <trkpt lat="44.76764" lon="0.94034">
        <ele>200.870499</ele>
        <time>2017-07-01T14:33:28Z</time>
      </trkpt>
      <trkpt lat="44.76745" lon="0.94038">
        <ele>199.367599</ele>
        <time>2017-07-01T14:33:31Z</time>
      </trkpt>
      <trkpt lat="44.76734" lon="0.94045">
        <ele>199.1474</ele>
        <time>2017-07-01T14:33:33Z</time>
      </trkpt>
      <trkpt lat="44.7672" lon="0.94058">
        <ele>199.855804</ele>
        <time>2017-07-01T14:33:36Z</time>
      </trkpt>
      <trkpt lat="44.76713" lon="0.9406">
        <ele>200.244781</ele>
        <time>2017-07-01T14:33:38Z</time>
      </trkpt>
      <trkpt lat="44.76705" lon="0.94049">
        <ele>200.04335</ele>
        <time>2017-07-01T14:33:41Z</time>
      </trkpt>
      <trkpt lat="44.767" lon="0.94023">
        <ele>198.72438</ele>
        <time>2017-07-01T14:33:45Z</time>
      </trkpt>
      <trkpt lat="44.767" lon="0.93997">
        <ele>197.524994</ele>
        <time>2017-07-01T14:33:49Z</time>
      </trkpt>
      <trkpt lat="44.76698" lon="0.93981">
        <ele>196.747498</ele>
        <time>2017-07-01T14:33:51Z</time>
      </trkpt>
      <trkpt lat="44.76692" lon="0.93964">
        <ele>195.844543</ele>
        <time>2017-07-01T14:33:53Z</time>
      </trkpt>
      <trkpt lat="44.76677" lon="0.93937">
        <ele>196.070374</ele>
        <time>2017-07-01T14:33:57Z</time>
      </trkpt>
      <trkpt lat="44.76642" lon="0.93895">
        <ele>194.406342</ele>
        <time>2017-07-01T14:34:05Z</time>
      </trkpt>
      <trkpt lat="44.76615" lon="0.93868">
        <ele>194.134201</ele>
        <time>2017-07-01T14:34:11Z</time>
      </trkpt>
      <trkpt lat="44.76528" lon="0.93801">
        <ele>195.495071</ele>
        <time>2017-07-01T14:34:31Z</time>
      </trkpt>
      <trkpt lat="44.76488" lon="0.93747">
        <ele>194.719116</ele>
        <time>2017-07-01T14:34:41Z</time>
      </trkpt>
      <trkpt lat="44.76468" lon="0.93729">
        <ele>194.466354</ele>
        <time>2017-07-01T14:34:45Z</time>
      </trkpt>
      <trkpt lat="44.76425" lon="0.93709">
        <ele>192.603088</ele>
        <time>2017-07-01T14:34:52Z</time>
      </trkpt>
      <trkpt lat="44.76393" lon="0.93686">
        <ele>191.925797</ele>
        <time>2017-07-01T14:34:58Z</time>
      </trkpt>
      <trkpt lat="44.76365" lon="0.93672">
        <ele>192.027496</ele>
        <time>2017-07-01T14:35:04Z</time>
      </trkpt>
      <trkpt lat="44.76334" lon="0.93652">
        <ele>191.764374</ele>
        <time>2017-07-01T14:35:10Z</time>
      </trkpt>
      <trkpt lat="44.76312" lon="0.93634">
        <ele>189.78125</ele>
        <time>2017-07-01T14:35:15Z</time>
      </trkpt>
      <trkpt lat="44.76298" lon="0.93619">
        <ele>187.975006</ele>
        <time>2017-07-01T14:35:21Z</time>
      </trkpt>
      <trkpt lat="44.76298" lon="0.93615">
        <ele>187.606247</ele>
        <time>2017-07-01T14:35:23Z</time>
      </trkpt>
      <trkpt lat="44.76302" lon="0.93611">
        <ele>187.303757</ele>
        <time>2017-07-01T14:35:26Z</time>
      </trkpt>
      <trkpt lat="44.76326" lon="0.93607">
        <ele>187.544998</ele>
        <time>2017-07-01T14:35:49Z</time>
      </trkpt>
      <trkpt lat="44.76339" lon="0.93602">
        <ele>186.625015</ele>
        <time>2017-07-01T14:37:38Z</time>
      </trkpt>
      <trkpt lat="44.76393" lon="0.93591">
        <ele>183.158752</ele>
        <time>2017-07-01T14:37:52Z</time>
      </trkpt>
      <trkpt lat="44.76405" lon="0.93585">
        <ele>182.236877</ele>
        <time>2017-07-01T14:37:55Z</time>
      </trkpt>
      <trkpt lat="44.76415" lon="0.93572">
        <ele>180.935715</ele>
        <time>2017-07-01T14:37:58Z</time>
      </trkpt>
      <trkpt lat="44.76437" lon="0.93516">
        <ele>178.127502</ele>
        <time>2017-07-01T14:38:05Z</time>
      </trkpt>
      <trkpt lat="44.76469" lon="0.93452">
        <ele>177.181412</ele>
        <time>2017-07-01T14:38:13Z</time>
      </trkpt>
      <trkpt lat="44.76485" lon="0.93432">
        <ele>177.904816</ele>
        <time>2017-07-01T14:38:19Z</time>
      </trkpt>
      <trkpt lat="44.76515" lon="0.93407">
        <ele>180.992874</ele>
        <time>2017-07-01T14:38:42Z</time>
      </trkpt>
      <trkpt lat="44.76568" lon="0.93379">
        <ele>190.806519</ele>
        <time>2017-07-01T14:39:31Z</time>
      </trkpt>
      <trkpt lat="44.76576" lon="0.93379">
        <ele>192.026947</ele>
        <time>2017-07-01T14:39:39Z</time>
      </trkpt>
      <trkpt lat="44.76644" lon="0.93344">
        <ele>204.485184</ele>
        <time>2017-07-01T14:40:38Z</time>
      </trkpt>
      <trkpt lat="44.7668" lon="0.93318">
        <ele>210.413818</ele>
        <time>2017-07-01T14:41:07Z</time>
      </trkpt>
      <trkpt lat="44.76702" lon="0.93309">
        <ele>212.440002</ele>
        <time>2017-07-01T14:41:23Z</time>
      </trkpt>
      <trkpt lat="44.76722" lon="0.93307">
        <ele>214.289993</ele>
        <time>2017-07-01T14:41:35Z</time>
      </trkpt>
      <trkpt lat="44.76777" lon="0.93294">
        <ele>217.724457</ele>
        <time>2017-07-01T14:41:59Z</time>
      </trkpt>
      <trkpt lat="44.76792" lon="0.93284">
        <ele>218.077438</ele>
        <time>2017-07-01T14:42:04Z</time>
      </trkpt>
      <trkpt lat="44.76799" lon="0.93274">
        <ele>218.089584</ele>
        <time>2017-07-01T14:42:07Z</time>
      </trkpt>
      <trkpt lat="44.76808" lon="0.93254">
        <ele>217.82959</ele>
        <time>2017-07-01T14:42:11Z</time>
      </trkpt>
      <trkpt lat="44.76823" lon="0.93209">
        <ele>218.087494</ele>
        <time>2017-07-01T14:42:18Z</time>
      </trkpt>
      <trkpt lat="44.76853" lon="0.93127">
        <ele>218.034943</ele>
        <time>2017-07-01T14:42:32Z</time>
      </trkpt>
      <trkpt lat="44.76891" lon="0.93045">
        <ele>217.75563</ele>
        <time>2017-07-01T14:42:45Z</time>
      </trkpt>
      <trkpt lat="44.76905" lon="0.93">
        <ele>217.053757</ele>
        <time>2017-07-01T14:42:51Z</time>
      </trkpt>
      <trkpt lat="44.76943" lon="0.92839">
        <ele>215.720001</ele>
        <time>2017-07-01T14:43:14Z</time>
      </trkpt>
      <trkpt lat="44.76952" lon="0.92825">
        <ele>216.123154</ele>
        <time>2017-07-01T14:43:18Z</time>
      </trkpt>
      <trkpt lat="44.7697" lon="0.92822">
        <ele>216.82103</ele>
        <time>2017-07-01T14:43:23Z</time>
      </trkpt>
      <trkpt lat="44.76977" lon="0.92805">
        <ele>217.27092</ele>
        <time>2017-07-01T14:43:27Z</time>
      </trkpt>
      <trkpt lat="44.76978" lon="0.9278">
        <ele>217.45015</ele>
        <time>2017-07-01T14:43:32Z</time>
      </trkpt>
      <trkpt lat="44.76973" lon="0.92738">
        <ele>217.557495</ele>
        <time>2017-07-01T14:43:38Z</time>
      </trkpt>
      <trkpt lat="44.76965" lon="0.92697">
        <ele>217.392502</ele>
        <time>2017-07-01T14:43:43Z</time>
      </trkpt>
      <trkpt lat="44.76937" lon="0.92578">
        <ele>215.682693</ele>
        <time>2017-07-01T14:43:58Z</time>
      </trkpt>
      <trkpt lat="44.76909" lon="0.92485">
        <ele>212.761627</ele>
        <time>2017-07-01T14:44:10Z</time>
      </trkpt>
      <trkpt lat="44.76884" lon="0.92421">
        <ele>210.919128</ele>
        <time>2017-07-01T14:44:18Z</time>
      </trkpt>
      <trkpt lat="44.76868" lon="0.9236">
        <ele>210.608444</ele>
        <time>2017-07-01T14:44:25Z</time>
      </trkpt>
      <trkpt lat="44.76851" lon="0.92271">
        <ele>210.007202</ele>
        <time>2017-07-01T14:44:35Z</time>
      </trkpt>
      <trkpt lat="44.76845" lon="0.9219">
        <ele>210</ele>
        <time>2017-07-01T14:44:44Z</time>
      </trkpt>
      <trkpt lat="44.76846" lon="0.92135">
        <ele>209.337494</ele>
        <time>2017-07-01T14:44:50Z</time>
      </trkpt>
      <trkpt lat="44.76853" lon="0.91962">
        <ele>207.841797</ele>
        <time>2017-07-01T14:45:10Z</time>
      </trkpt>
      <trkpt lat="44.76862" lon="0.91897">
        <ele>206.898132</ele>
        <time>2017-07-01T14:45:18Z</time>
      </trkpt>
      <trkpt lat="44.76863" lon="0.91855">
        <ele>206.25</ele>
        <time>2017-07-01T14:45:24Z</time>
      </trkpt>
      <trkpt lat="44.76872" lon="0.91799">
        <ele>205.854996</ele>
        <time>2017-07-01T14:45:34Z</time>
      </trkpt>
      <trkpt lat="44.76878" lon="0.91785">
        <ele>205.370621</ele>
        <time>2017-07-01T14:45:41Z</time>
      </trkpt>
      <trkpt lat="44.7688" lon="0.91763">
        <ele>204.938751</ele>
        <time>2017-07-01T14:45:46Z</time>
      </trkpt>
      <trkpt lat="44.76888" lon="0.91717">
        <ele>204.073654</ele>
        <time>2017-07-01T14:45:55Z</time>
      </trkpt>
      <trkpt lat="44.76897" lon="0.91538">
        <ele>202.805206</ele>
        <time>2017-07-01T14:46:20Z</time>
      </trkpt>
      <trkpt lat="44.76895" lon="0.91479">
        <ele>203.102066</ele>
        <time>2017-07-01T14:46:27Z</time>
      </trkpt>
      <trkpt lat="44.7689" lon="0.91431">
        <ele>204.68103</ele>
        <time>2017-07-01T14:46:34Z</time>
      </trkpt>
      <trkpt lat="44.76891" lon="0.91387">
        <ele>206.610626</ele>
        <time>2017-07-01T14:46:42Z</time>
      </trkpt>
      <trkpt lat="44.76896" lon="0.91363">
        <ele>207.886246</ele>
        <time>2017-07-01T14:46:50Z</time>
      </trkpt>
      <trkpt lat="44.76898" lon="0.91324">
        <ele>210.004288</ele>
        <time>2017-07-01T14:47:03Z</time>
      </trkpt>
      <trkpt lat="44.76897" lon="0.91287">
        <ele>211.840439</ele>
        <time>2017-07-01T14:47:17Z</time>
      </trkpt>
      <trkpt lat="44.76898" lon="0.91278">
        <ele>211.989136</ele>
        <time>2017-07-01T14:47:20Z</time>
      </trkpt>
      <trkpt lat="44.76895" lon="0.91228">
        <ele>213</ele>
        <time>2017-07-01T14:47:35Z</time>
      </trkpt>
      <trkpt lat="44.76895" lon="0.91162">
        <ele>212.846603</ele>
        <time>2017-07-01T14:47:55Z</time>
      </trkpt>
      <trkpt lat="44.76882" lon="0.91112">
        <ele>210.45343</ele>
        <time>2017-07-01T14:48:04Z</time>
      </trkpt>
      <trkpt lat="44.76856" lon="0.91065">
        <ele>205.321533</ele>
        <time>2017-07-01T14:48:12Z</time>
      </trkpt>
      <trkpt lat="44.76847" lon="0.90994">
        <ele>199.386673</ele>
        <time>2017-07-01T14:48:26Z</time>
      </trkpt>
      <trkpt lat="44.76845" lon="0.9093">
        <ele>194.597839</ele>
        <time>2017-07-01T14:48:37Z</time>
      </trkpt>
      <trkpt lat="44.76848" lon="0.90907">
        <ele>193.45401</ele>
        <time>2017-07-01T14:48:43Z</time>
      </trkpt>
      <trkpt lat="44.76851" lon="0.90896">
        <ele>193.358963</ele>
        <time>2017-07-01T14:48:49Z</time>
      </trkpt>
      <trkpt lat="44.76856" lon="0.90828">
        <ele>192.313141</ele>
        <time>2017-07-01T14:49:28Z</time>
      </trkpt>
      <trkpt lat="44.76855" lon="0.90769">
        <ele>192.005005</ele>
        <time>2017-07-01T14:49:40Z</time>
      </trkpt>
      <trkpt lat="44.76845" lon="0.9071">
        <ele>191.321869</ele>
        <time>2017-07-01T14:49:50Z</time>
      </trkpt>
      <trkpt lat="44.76835" lon="0.90673">
        <ele>190.326248</ele>
        <time>2017-07-01T14:50:01Z</time>
      </trkpt>
      <trkpt lat="44.76819" lon="0.90642">
        <ele>188.005066</ele>
        <time>2017-07-01T14:50:06Z</time>
      </trkpt>
      <trkpt lat="44.76817" lon="0.90634">
        <ele>187.660019</ele>
        <time>2017-07-01T14:50:07Z</time>
      </trkpt>
      <trkpt lat="44.76818" lon="0.90617">
        <ele>187.481171</ele>
        <time>2017-07-01T14:50:09Z</time>
      </trkpt>
      <trkpt lat="44.76827" lon="0.90596">
        <ele>187.666153</ele>
        <time>2017-07-01T14:50:12Z</time>
      </trkpt>
      <trkpt lat="44.76876" lon="0.90518">
        <ele>182.839996</ele>
        <time>2017-07-01T14:50:26Z</time>
      </trkpt>
      <trkpt lat="44.76879" lon="0.90505">
        <ele>181.782501</ele>
        <time>2017-07-01T14:50:29Z</time>
      </trkpt>
      <trkpt lat="44.76811" lon="0.90444">
        <ele>180.220398</ele>
        <time>2017-07-01T14:50:46Z</time>
      </trkpt>
      <trkpt lat="44.76773" lon="0.90434">
        <ele>180.776123</ele>
        <time>2017-07-01T14:50:54Z</time>
      </trkpt>
      <trkpt lat="44.76744" lon="0.90416">
        <ele>180.081894</ele>
        <time>2017-07-01T14:51:03Z</time>
      </trkpt>
      <trkpt lat="44.76721" lon="0.90396">
        <ele>178.127304</ele>
        <time>2017-07-01T14:51:11Z</time>
      </trkpt>
      <trkpt lat="44.76705" lon="0.90369">
        <ele>175.417419</ele>
        <time>2017-07-01T14:51:21Z</time>
      </trkpt>
      <trkpt lat="44.76695" lon="0.90334">
        <ele>172.088531</ele>
        <time>2017-07-01T14:51:27Z</time>
      </trkpt>
      <trkpt lat="44.76677" lon="0.90234">
        <ele>162.319061</ele>
        <time>2017-07-01T14:51:40Z</time>
      </trkpt>
      <trkpt lat="44.7667" lon="0.90211">
        <ele>159.961609</ele>
        <time>2017-07-01T14:51:43Z</time>
      </trkpt>
      <trkpt lat="44.76657" lon="0.90187">
        <ele>157.915482</ele>
        <time>2017-07-01T14:51:47Z</time>
      </trkpt>
      <trkpt lat="44.76604" lon="0.90108">
        <ele>150.9375</ele>
        <time>2017-07-01T14:52:03Z</time>
      </trkpt>
      <trkpt lat="44.76582" lon="0.90089">
        <ele>149.935532</ele>
        <time>2017-07-01T14:52:09Z</time>
      </trkpt>
      <trkpt lat="44.76541" lon="0.90036">
        <ele>143.895157</ele>
        <time>2017-07-01T14:52:21Z</time>
      </trkpt>
      <trkpt lat="44.765" lon="0.89996">
        <ele>140.732819</ele>
        <time>2017-07-01T14:52:29Z</time>
      </trkpt>
      <trkpt lat="44.76469" lon="0.89973">
        <ele>138.229065</ele>
        <time>2017-07-01T14:52:35Z</time>
      </trkpt>
      <trkpt lat="44.76452" lon="0.89968">
        <ele>137.675232</ele>
        <time>2017-07-01T14:52:39Z</time>
      </trkpt>
      <trkpt lat="44.7644" lon="0.8996">
        <ele>136.334381</ele>
        <time>2017-07-01T14:52:44Z</time>
      </trkpt>
      <trkpt lat="44.76442" lon="0.89958">
        <ele>136.138809</ele>
        <time>2017-07-01T14:52:48Z</time>
      </trkpt>
      <trkpt lat="44.76464" lon="0.89958">
        <ele>136.849106</ele>
        <time>2017-07-01T14:53:00Z</time>
      </trkpt>
      <trkpt lat="44.76511" lon="0.89972">
        <ele>136.271378</ele>
        <time>2017-07-01T14:53:23Z</time>
      </trkpt>
      <trkpt lat="44.76545" lon="0.8997">
        <ele>133.249451</ele>
        <time>2017-07-01T14:53:33Z</time>
      </trkpt>
      <trkpt lat="44.7658" lon="0.89974">
        <ele>131.785294</ele>
        <time>2017-07-01T14:53:36Z</time>
      </trkpt>
      <trkpt lat="44.76599" lon="0.89966">
        <ele>130.859558</ele>
        <time>2017-07-01T14:53:38Z</time>
      </trkpt>
      <trkpt lat="44.76637" lon="0.89936">
        <ele>132.095078</ele>
        <time>2017-07-01T14:53:45Z</time>
      </trkpt>
      <trkpt lat="44.76661" lon="0.89927">
        <ele>134.716537</ele>
        <time>2017-07-01T14:53:52Z</time>
      </trkpt>
      <trkpt lat="44.76688" lon="0.89927">
        <ele>137.316345</ele>
        <time>2017-07-01T14:54:01Z</time>
      </trkpt>
      <trkpt lat="44.76724" lon="0.89952">
        <ele>137.788818</ele>
        <time>2017-07-01T14:54:13Z</time>
      </trkpt>
      <trkpt lat="44.76742" lon="0.8996">
        <ele>137.919312</ele>
        <time>2017-07-01T14:54:18Z</time>
      </trkpt>
      <trkpt lat="44.76766" lon="0.89967">
        <ele>138.720016</ele>
        <time>2017-07-01T14:54:24Z</time>
      </trkpt>
      <trkpt lat="44.76816" lon="0.89975">
        <ele>140.886749</ele>
        <time>2017-07-01T14:54:36Z</time>
      </trkpt>
      <trkpt lat="44.76836" lon="0.89981">
        <ele>142.010849</ele>
        <time>2017-07-01T14:54:42Z</time>
      </trkpt>
      <trkpt lat="44.76853" lon="0.89994">
        <ele>141.914932</ele>
        <time>2017-07-01T14:54:48Z</time>
      </trkpt>
      <trkpt lat="44.76873" lon="0.90015">
        <ele>140.764832</ele>
        <time>2017-07-01T14:54:55Z</time>
      </trkpt>
      <trkpt lat="44.76894" lon="0.9003">
        <ele>141.423706</ele>
        <time>2017-07-01T14:55:01Z</time>
      </trkpt>
      <trkpt lat="44.76909" lon="0.90038">
        <ele>142.612686</ele>
        <time>2017-07-01T14:55:06Z</time>
      </trkpt>
      <trkpt lat="44.76954" lon="0.90041">
        <ele>145.996124</ele>
        <time>2017-07-01T14:55:24Z</time>
      </trkpt>
      <trkpt lat="44.76997" lon="0.90032">
        <ele>149.054993</ele>
        <time>2017-07-01T14:55:43Z</time>
      </trkpt>
      <trkpt lat="44.77035" lon="0.90015">
        <ele>149.931381</ele>
        <time>2017-07-01T14:56:01Z</time>
      </trkpt>
      <trkpt lat="44.77044" lon="0.90006">
        <ele>150.625824</ele>
        <time>2017-07-01T14:56:06Z</time>
      </trkpt>
      <trkpt lat="44.7706" lon="0.89979">
        <ele>152.241074</ele>
        <time>2017-07-01T14:56:18Z</time>
      </trkpt>
      <trkpt lat="44.77083" lon="0.89903">
        <ele>155.795242</ele>
        <time>2017-07-01T14:56:45Z</time>
      </trkpt>
      <trkpt lat="44.77088" lon="0.89881">
        <ele>158.308823</ele>
        <time>2017-07-01T14:56:51Z</time>
      </trkpt>
      <trkpt lat="44.77116" lon="0.89831">
        <ele>163.003342</ele>
        <time>2017-07-01T14:57:11Z</time>
      </trkpt>
      <trkpt lat="44.77121" lon="0.89797">
        <ele>167.600128</ele>
        <time>2017-07-01T14:57:23Z</time>
      </trkpt>
      <trkpt lat="44.77128" lon="0.89779">
        <ele>169.524551</ele>
        <time>2017-07-01T14:57:29Z</time>
      </trkpt>
      <trkpt lat="44.77135" lon="0.8977">
        <ele>170.056274</ele>
        <time>2017-07-01T14:57:33Z</time>
      </trkpt>
      <trkpt lat="44.77148" lon="0.89763">
        <ele>169.820007</ele>
        <time>2017-07-01T14:57:40Z</time>
      </trkpt>
      <trkpt lat="44.77164" lon="0.8975">
        <ele>170.144501</ele>
        <time>2017-07-01T14:57:48Z</time>
      </trkpt>
      <trkpt lat="44.77193" lon="0.89717">
        <ele>173.569214</ele>
        <time>2017-07-01T14:58:03Z</time>
      </trkpt>
      <trkpt lat="44.77223" lon="0.89702">
        <ele>175.182617</ele>
        <time>2017-07-01T14:58:18Z</time>
      </trkpt>
      <trkpt lat="44.77232" lon="0.89694">
        <ele>177.136276</ele>
        <time>2017-07-01T14:58:23Z</time>
      </trkpt>
      <trkpt lat="44.77241" lon="0.89681">
        <ele>179.229706</ele>
        <time>2017-07-01T14:58:29Z</time>
      </trkpt>
      <trkpt lat="44.77247" lon="0.89666">
        <ele>180.731186</ele>
        <time>2017-07-01T14:58:35Z</time>
      </trkpt>
      <trkpt lat="44.77247" lon="0.89645">
        <ele>181.528305</ele>
        <time>2017-07-01T14:58:41Z</time>
      </trkpt>
      <trkpt lat="44.77241" lon="0.89632">
        <ele>181.887497</ele>
        <time>2017-07-01T14:58:46Z</time>
      </trkpt>
      <trkpt lat="44.77218" lon="0.89595">
        <ele>182.715622</ele>
        <time>2017-07-01T14:59:01Z</time>
      </trkpt>
      <trkpt lat="44.77133" lon="0.89482">
        <ele>191.039764</ele>
        <time>2017-07-01T14:59:48Z</time>
      </trkpt>
      <trkpt lat="44.77133" lon="0.89475">
        <ele>191.066742</ele>
        <time>2017-07-01T14:59:50Z</time>
      </trkpt>
      <trkpt lat="44.77153" lon="0.89456">
        <ele>191.975998</ele>
        <time>2017-07-01T15:00:00Z</time>
      </trkpt>
      <trkpt lat="44.77214" lon="0.89407">
        <ele>194.457245</ele>
        <time>2017-07-01T15:00:24Z</time>
      </trkpt>
      <trkpt lat="44.77261" lon="0.89385">
        <ele>198.570618</ele>
        <time>2017-07-01T15:00:41Z</time>
      </trkpt>
      <trkpt lat="44.77279" lon="0.8938">
        <ele>199.241669</ele>
        <time>2017-07-01T15:00:47Z</time>
      </trkpt>
      <trkpt lat="44.77327" lon="0.89378">
        <ele>200.72258</ele>
        <time>2017-07-01T15:01:01Z</time>
      </trkpt>
      <trkpt lat="44.77355" lon="0.89382">
        <ele>201.511383</ele>
        <time>2017-07-01T15:01:09Z</time>
      </trkpt>
      <trkpt lat="44.77387" lon="0.89391">
        <ele>200.762848</ele>
        <time>2017-07-01T15:01:18Z</time>
      </trkpt>
      <trkpt lat="44.77415" lon="0.89406">
        <ele>199.291702</ele>
        <time>2017-07-01T15:01:25Z</time>
      </trkpt>
      <trkpt lat="44.7747" lon="0.89454">
        <ele>198.800003</ele>
        <time>2017-07-01T15:01:40Z</time>
      </trkpt>
      <trkpt lat="44.77484" lon="0.89462">
        <ele>198.591476</ele>
        <time>2017-07-01T15:01:44Z</time>
      </trkpt>
      <trkpt lat="44.77513" lon="0.89473">
        <ele>198.892334</ele>
        <time>2017-07-01T15:01:52Z</time>
      </trkpt>
      <trkpt lat="44.77555" lon="0.89492">
        <ele>201.491333</ele>
        <time>2017-07-01T15:02:04Z</time>
      </trkpt>
      <trkpt lat="44.77584" lon="0.89495">
        <ele>203.177872</ele>
        <time>2017-07-01T15:02:11Z</time>
      </trkpt>
      <trkpt lat="44.7764" lon="0.89465">
        <ele>204.130264</ele>
        <time>2017-07-01T15:02:29Z</time>
      </trkpt>
      <trkpt lat="44.77653" lon="0.89454">
        <ele>204.397949</ele>
        <time>2017-07-01T15:02:34Z</time>
      </trkpt>
      <trkpt lat="44.77695" lon="0.8943">
        <ele>204.058655</ele>
        <time>2017-07-01T15:02:48Z</time>
      </trkpt>
      <trkpt lat="44.7774" lon="0.89389">
        <ele>203.429901</ele>
        <time>2017-07-01T15:03:01Z</time>
      </trkpt>
      <trkpt lat="44.77767" lon="0.89356">
        <ele>204.99971</ele>
        <time>2017-07-01T15:03:12Z</time>
      </trkpt>
      <trkpt lat="44.77818" lon="0.89276">
        <ele>210.428131</ele>
        <time>2017-07-01T15:03:43Z</time>
      </trkpt>
      <trkpt lat="44.77861" lon="0.8918">
        <ele>219.862747</ele>
        <time>2017-07-01T15:04:27Z</time>
      </trkpt>
      <trkpt lat="44.7788" lon="0.89156">
        <ele>222.830017</ele>
        <time>2017-07-01T15:04:46Z</time>
      </trkpt>
      <trkpt lat="44.77905" lon="0.8914">
        <ele>225.577133</ele>
        <time>2017-07-01T15:05:04Z</time>
      </trkpt>
      <trkpt lat="44.77948" lon="0.89105">
        <ele>229.04718</ele>
        <time>2017-07-01T15:05:32Z</time>
      </trkpt>
      <trkpt lat="44.77964" lon="0.89089">
        <ele>229.408203</ele>
        <time>2017-07-01T15:05:41Z</time>
      </trkpt>
      <trkpt lat="44.78015" lon="0.89053">
        <ele>230.218399</ele>
        <time>2017-07-01T15:05:58Z</time>
      </trkpt>
      <trkpt lat="44.78069" lon="0.89005">
        <ele>230.472504</ele>
        <time>2017-07-01T15:06:17Z</time>
      </trkpt>
      <trkpt lat="44.78177" lon="0.88923">
        <ele>232.988754</ele>
        <time>2017-07-01T15:06:50Z</time>
      </trkpt>
      <trkpt lat="44.78241" lon="0.88883">
        <ele>233.508942</ele>
        <time>2017-07-01T15:07:10Z</time>
      </trkpt>
      <trkpt lat="44.78341" lon="0.88797">
        <ele>231.992294</ele>
        <time>2017-07-01T15:07:39Z</time>
      </trkpt>
      <trkpt lat="44.78365" lon="0.88782">
        <ele>232</ele>
        <time>2017-07-01T15:07:45Z</time>
      </trkpt>
      <trkpt lat="44.78438" lon="0.88746">
        <ele>232.582657</ele>
        <time>2017-07-01T15:08:01Z</time>
      </trkpt>
      <trkpt lat="44.7848" lon="0.8873">
        <ele>232.058014</ele>
        <time>2017-07-01T15:08:09Z</time>
      </trkpt>
      <trkpt lat="44.78509" lon="0.88725">
        <ele>232.000092</ele>
        <time>2017-07-01T15:08:14Z</time>
      </trkpt>
      <trkpt lat="44.78653" lon="0.88715">
        <ele>225.259079</ele>
        <time>2017-07-01T15:08:41Z</time>
      </trkpt>
      <trkpt lat="44.78686" lon="0.88683">
        <ele>226.509567</ele>
        <time>2017-07-01T15:08:54Z</time>
      </trkpt>
      <trkpt lat="44.78709" lon="0.88637">
        <ele>227.876236</ele>
        <time>2017-07-01T15:09:06Z</time>
      </trkpt>
      <trkpt lat="44.7874" lon="0.88587">
        <ele>229.160461</ele>
        <time>2017-07-01T15:09:18Z</time>
      </trkpt>
      <trkpt lat="44.78773" lon="0.88543">
        <ele>230.730499</ele>
        <time>2017-07-01T15:09:30Z</time>
      </trkpt>
      <trkpt lat="44.78798" lon="0.88517">
        <ele>231.809189</ele>
        <time>2017-07-01T15:09:38Z</time>
      </trkpt>
      <trkpt lat="44.78818" lon="0.88508">
        <ele>232.644318</ele>
        <time>2017-07-01T15:09:43Z</time>
      </trkpt>
      <trkpt lat="44.78865" lon="0.88506">
        <ele>233.272797</ele>
        <time>2017-07-01T15:09:55Z</time>
      </trkpt>
      <trkpt lat="44.78923" lon="0.88513">
        <ele>234.286331</ele>
        <time>2017-07-01T15:10:09Z</time>
      </trkpt>
      <trkpt lat="44.78936" lon="0.88522">
        <ele>234.448715</ele>
        <time>2017-07-01T15:10:14Z</time>
      </trkpt>
      <trkpt lat="44.78938" lon="0.88545">
        <ele>234.297318</ele>
        <time>2017-07-01T15:10:18Z</time>
      </trkpt>
      <trkpt lat="44.78942" lon="0.88577">
        <ele>234.089432</ele>
        <time>2017-07-01T15:10:24Z</time>
      </trkpt>
      <trkpt lat="44.78952" lon="0.88594">
        <ele>233.893753</ele>
        <time>2017-07-01T15:10:28Z</time>
      </trkpt>
      <trkpt lat="44.79011" lon="0.88623">
        <ele>234.365005</ele>
        <time>2017-07-01T15:10:41Z</time>
      </trkpt>
      <trkpt lat="44.79068" lon="0.88643">
        <ele>232.750626</ele>
        <time>2017-07-01T15:10:52Z</time>
      </trkpt>
      <trkpt lat="44.79237" lon="0.88688">
        <ele>229.059998</ele>
        <time>2017-07-01T15:11:18Z</time>
      </trkpt>
      <trkpt lat="44.79278" lon="0.88701">
        <ele>229.977493</ele>
        <time>2017-07-01T15:11:26Z</time>
      </trkpt>
      <trkpt lat="44.79295" lon="0.88711">
        <ele>230.27182</ele>
        <time>2017-07-01T15:11:30Z</time>
      </trkpt>
      <trkpt lat="44.793" lon="0.88706">
        <ele>230.446045</ele>
        <time>2017-07-01T15:11:32Z</time>
      </trkpt>
      <trkpt lat="44.79292" lon="0.8861">
        <ele>230.3125</ele>
        <time>2017-07-01T15:11:53Z</time>
      </trkpt>
      <trkpt lat="44.79293" lon="0.88608">
        <ele>230.339996</ele>
        <time>2017-07-01T15:11:54Z</time>
      </trkpt>
      <trkpt lat="44.79318" lon="0.88609">
        <ele>230.892502</ele>
        <time>2017-07-01T15:12:04Z</time>
      </trkpt>
      <trkpt lat="44.79337" lon="0.88605">
        <ele>231</ele>
        <time>2017-07-01T15:12:10Z</time>
      </trkpt>
      <trkpt lat="44.79374" lon="0.88603">
        <ele>231.069443</ele>
        <time>2017-07-01T15:12:21Z</time>
      </trkpt>
      <trkpt lat="44.79386" lon="0.88607">
        <ele>231.206802</ele>
        <time>2017-07-01T15:12:25Z</time>
      </trkpt>
      <trkpt lat="44.794" lon="0.88624">
        <ele>231.158859</ele>
        <time>2017-07-01T15:12:31Z</time>
      </trkpt>
      <trkpt lat="44.79418" lon="0.88638">
        <ele>231.10556</ele>
        <time>2017-07-01T15:12:37Z</time>
      </trkpt>
      <trkpt lat="44.79461" lon="0.88693">
        <ele>230.258057</ele>
        <time>2017-07-01T15:12:53Z</time>
      </trkpt>
      <trkpt lat="44.7949" lon="0.88721">
        <ele>230.115707</ele>
        <time>2017-07-01T15:13:05Z</time>
      </trkpt>
      <trkpt lat="44.79494" lon="0.8872">
        <ele>230.175842</ele>
        <time>2017-07-01T15:13:09Z</time>
      </trkpt>
      <trkpt lat="44.79496" lon="0.88715">
        <ele>230.352066</ele>
        <time>2017-07-01T15:13:17Z</time>
      </trkpt>
      <trkpt lat="44.79498" lon="0.88724">
        <ele>230.114838</ele>
        <time>2017-07-01T15:13:28Z</time>
      </trkpt>
      <trkpt lat="44.79524" lon="0.8874">
        <ele>229.242493</ele>
        <time>2017-07-01T15:13:46Z</time>
      </trkpt>
      <trkpt lat="44.79572" lon="0.88788">
        <ele>226.222504</ele>
        <time>2017-07-01T15:14:05Z</time>
      </trkpt>
      <trkpt lat="44.79604" lon="0.88824">
        <ele>223.731171</ele>
        <time>2017-07-01T15:14:17Z</time>
      </trkpt>
      <trkpt lat="44.79635" lon="0.88869">
        <ele>219.504486</ele>
        <time>2017-07-01T15:14:29Z</time>
      </trkpt>
      <trkpt lat="44.79677" lon="0.88912">
        <ele>214.738297</ele>
        <time>2017-07-01T15:14:42Z</time>
      </trkpt>
      <trkpt lat="44.79692" lon="0.88935">
        <ele>211.783752</ele>
        <time>2017-07-01T15:14:49Z</time>
      </trkpt>
      <trkpt lat="44.79706" lon="0.88946">
        <ele>209.833755</ele>
        <time>2017-07-01T15:14:54Z</time>
      </trkpt>
      <trkpt lat="44.79717" lon="0.88961">
        <ele>209.748611</ele>
        <time>2017-07-01T15:14:59Z</time>
      </trkpt>
      <trkpt lat="44.79733" lon="0.88979">
        <ele>210.074005</ele>
        <time>2017-07-01T15:15:45Z</time>
      </trkpt>
      <trkpt lat="44.79755" lon="0.88991">
        <ele>210.742798</ele>
        <time>2017-07-01T15:15:55Z</time>
      </trkpt>
      <trkpt lat="44.79774" lon="0.89011">
        <ele>212.293076</ele>
        <time>2017-07-01T15:16:07Z</time>
      </trkpt>
      <trkpt lat="44.79825" lon="0.89048">
        <ele>215.548981</ele>
        <time>2017-07-01T15:17:13Z</time>
      </trkpt>
      <trkpt lat="44.79855" lon="0.89064">
        <ele>216.205338</ele>
        <time>2017-07-01T15:17:37Z</time>
      </trkpt>
      <trkpt lat="44.79885" lon="0.89087">
        <ele>217.059998</ele>
        <time>2017-07-01T15:17:47Z</time>
      </trkpt>
      <trkpt lat="44.79963" lon="0.89156">
        <ele>222.037506</ele>
        <time>2017-07-01T15:18:14Z</time>
      </trkpt>
      <trkpt lat="44.79984" lon="0.89169">
        <ele>223.951874</ele>
        <time>2017-07-01T15:18:22Z</time>
      </trkpt>
      <trkpt lat="44.80038" lon="0.8919">
        <ele>226.179367</ele>
        <time>2017-07-01T15:18:46Z</time>
      </trkpt>
      <trkpt lat="44.80048" lon="0.89198">
        <ele>226.671738</ele>
        <time>2017-07-01T15:18:52Z</time>
      </trkpt>
      <trkpt lat="44.80061" lon="0.89221">
        <ele>228.646164</ele>
        <time>2017-07-01T15:19:06Z</time>
      </trkpt>
      <trkpt lat="44.80084" lon="0.89244">
        <ele>231.62796</ele>
        <time>2017-07-01T15:19:22Z</time>
      </trkpt>
      <trkpt lat="44.80097" lon="0.89253">
        <ele>233.083755</ele>
        <time>2017-07-01T15:19:30Z</time>
      </trkpt>
      <trkpt lat="44.80123" lon="0.89254">
        <ele>234.403748</ele>
        <time>2017-07-01T15:19:43Z</time>
      </trkpt>
      <trkpt lat="44.80143" lon="0.8926">
        <ele>235.946106</ele>
        <time>2017-07-01T15:19:56Z</time>
      </trkpt>
      <trkpt lat="44.80179" lon="0.89295">
        <ele>240.350052</ele>
        <time>2017-07-01T15:20:18Z</time>
      </trkpt>
      <trkpt lat="44.80192" lon="0.8931">
        <ele>241.760498</ele>
        <time>2017-07-01T15:20:26Z</time>
      </trkpt>
      <trkpt lat="44.80222" lon="0.8932">
        <ele>242.124374</ele>
        <time>2017-07-01T15:20:38Z</time>
      </trkpt>
      <trkpt lat="44.80234" lon="0.89315">
        <ele>242.045624</ele>
        <time>2017-07-01T15:20:43Z</time>
      </trkpt>
      <trkpt lat="44.80258" lon="0.8928">
        <ele>241.097412</ele>
        <time>2017-07-01T15:20:55Z</time>
      </trkpt>
      <trkpt lat="44.80274" lon="0.89252">
        <ele>240.972351</ele>
        <time>2017-07-01T15:21:01Z</time>
      </trkpt>
      <trkpt lat="44.80288" lon="0.8922">
        <ele>240.792191</ele>
        <time>2017-07-01T15:21:07Z</time>
      </trkpt>
      <trkpt lat="44.80299" lon="0.8919">
        <ele>240.692413</ele>
        <time>2017-07-01T15:21:13Z</time>
      </trkpt>
      <trkpt lat="44.80342" lon="0.89107">
        <ele>242.239639</ele>
        <time>2017-07-01T15:21:32Z</time>
      </trkpt>
      <trkpt lat="44.80364" lon="0.89054">
        <ele>242.895004</ele>
        <time>2017-07-01T15:21:43Z</time>
      </trkpt>
      <trkpt lat="44.80384" lon="0.89014">
        <ele>241.465744</ele>
        <time>2017-07-01T15:21:52Z</time>
      </trkpt>
      <trkpt lat="44.804" lon="0.8899">
        <ele>241.304642</ele>
        <time>2017-07-01T15:21:58Z</time>
      </trkpt>
      <trkpt lat="44.80422" lon="0.88967">
        <ele>240.287598</ele>
        <time>2017-07-01T15:22:07Z</time>
      </trkpt>
      <trkpt lat="44.80448" lon="0.88944">
        <ele>239.855255</ele>
        <time>2017-07-01T15:22:19Z</time>
      </trkpt>
      <trkpt lat="44.8046" lon="0.88941">
        <ele>240.172379</ele>
        <time>2017-07-01T15:22:24Z</time>
      </trkpt>
      <trkpt lat="44.80496" lon="0.88912">
        <ele>239.841965</ele>
        <time>2017-07-01T15:22:39Z</time>
      </trkpt>
      <trkpt lat="44.80526" lon="0.88874">
        <ele>239.257813</ele>
        <time>2017-07-01T15:22:57Z</time>
      </trkpt>
      <trkpt lat="44.8053" lon="0.88874">
        <ele>239.517441</ele>
        <time>2017-07-01T15:24:50Z</time>
      </trkpt>
      <trkpt lat="44.8053" lon="0.88871">
        <ele>239.415939</ele>
        <time>2017-07-01T15:28:42Z</time>
      </trkpt>
      <trkpt lat="44.80541" lon="0.88865">
        <ele>240.075714</ele>
        <time>2017-07-01T15:28:52Z</time>
      </trkpt>
      <trkpt lat="44.80546" lon="0.88858">
        <ele>240.011932</ele>
        <time>2017-07-01T15:28:55Z</time>
      </trkpt>
      <trkpt lat="44.80557" lon="0.88833">
        <ele>239.455765</ele>
        <time>2017-07-01T15:29:01Z</time>
      </trkpt>
      <trkpt lat="44.80565" lon="0.88807">
        <ele>239.139297</ele>
        <time>2017-07-01T15:29:06Z</time>
      </trkpt>
      <trkpt lat="44.8059" lon="0.88767">
        <ele>238.795898</ele>
        <time>2017-07-01T15:29:16Z</time>
      </trkpt>
      <trkpt lat="44.8062" lon="0.8873">
        <ele>237.302505</ele>
        <time>2017-07-01T15:29:28Z</time>
      </trkpt>
      <trkpt lat="44.80624" lon="0.88715">
        <ele>236.363754</ele>
        <time>2017-07-01T15:29:31Z</time>
      </trkpt>
      <trkpt lat="44.80625" lon="0.88659">
        <ele>231.783432</ele>
        <time>2017-07-01T15:29:39Z</time>
      </trkpt>
      <trkpt lat="44.80628" lon="0.88642">
        <ele>230.40625</ele>
        <time>2017-07-01T15:29:42Z</time>
      </trkpt>
      <trkpt lat="44.80635" lon="0.88628">
        <ele>229.213745</ele>
        <time>2017-07-01T15:29:45Z</time>
      </trkpt>
      <trkpt lat="44.80641" lon="0.8862">
        <ele>228.625</ele>
        <time>2017-07-01T15:29:48Z</time>
      </trkpt>
      <trkpt lat="44.80653" lon="0.88619">
        <ele>228.841248</ele>
        <time>2017-07-01T15:29:52Z</time>
      </trkpt>
      <trkpt lat="44.80668" lon="0.88628">
        <ele>230.043747</ele>
        <time>2017-07-01T15:29:58Z</time>
      </trkpt>
      <trkpt lat="44.80707" lon="0.88642">
        <ele>229.338745</ele>
        <time>2017-07-01T15:32:30Z</time>
      </trkpt>
      <trkpt lat="44.80718" lon="0.88629">
        <ele>227.290771</ele>
        <time>2017-07-01T15:32:49Z</time>
      </trkpt>
      <trkpt lat="44.80767" lon="0.88553">
        <ele>216.027954</ele>
        <time>2017-07-01T15:33:03Z</time>
      </trkpt>
      <trkpt lat="44.80775" lon="0.88545">
        <ele>214.331818</ele>
        <time>2017-07-01T15:33:06Z</time>
      </trkpt>
      <trkpt lat="44.80784" lon="0.88544">
        <ele>213.446899</ele>
        <time>2017-07-01T15:33:09Z</time>
      </trkpt>
      <trkpt lat="44.8081" lon="0.88531">
        <ele>209.72937</ele>
        <time>2017-07-01T15:33:16Z</time>
      </trkpt>
      <trkpt lat="44.80841" lon="0.88523">
        <ele>204.923737</ele>
        <time>2017-07-01T15:33:22Z</time>
      </trkpt>
      <trkpt lat="44.80852" lon="0.88511">
        <ele>202.435471</ele>
        <time>2017-07-01T15:33:25Z</time>
      </trkpt>
      <trkpt lat="44.80871" lon="0.885">
        <ele>200.01741</ele>
        <time>2017-07-01T15:33:29Z</time>
      </trkpt>
      <trkpt lat="44.80886" lon="0.88488">
        <ele>197.56572</ele>
        <time>2017-07-01T15:33:32Z</time>
      </trkpt>
      <trkpt lat="44.80936" lon="0.88476">
        <ele>193.727341</ele>
        <time>2017-07-01T15:33:39Z</time>
      </trkpt>
      <trkpt lat="44.80966" lon="0.88456">
        <ele>192.777496</ele>
        <time>2017-07-01T15:33:45Z</time>
      </trkpt>
      <trkpt lat="44.80986" lon="0.88437">
        <ele>191.493317</ele>
        <time>2017-07-01T15:33:50Z</time>
      </trkpt>
      <trkpt lat="44.81" lon="0.88417">
        <ele>187.464249</ele>
        <time>2017-07-01T15:33:54Z</time>
      </trkpt>
      <trkpt lat="44.8103" lon="0.88321">
        <ele>183.562439</ele>
        <time>2017-07-01T15:34:12Z</time>
      </trkpt>
      <trkpt lat="44.81046" lon="0.88254">
        <ele>185.850311</ele>
        <time>2017-07-01T15:34:27Z</time>
      </trkpt>
      <trkpt lat="44.81051" lon="0.88203">
        <ele>188.806656</ele>
        <time>2017-07-01T15:34:41Z</time>
      </trkpt>
      <trkpt lat="44.81051" lon="0.88135">
        <ele>189.264206</ele>
        <time>2017-07-01T15:34:56Z</time>
      </trkpt>
      <trkpt lat="44.81053" lon="0.88127">
        <ele>189.296631</ele>
        <time>2017-07-01T15:34:59Z</time>
      </trkpt>
      <trkpt lat="44.81063" lon="0.88126">
        <ele>190.297852</ele>
        <time>2017-07-01T15:35:08Z</time>
      </trkpt>
      <trkpt lat="44.81086" lon="0.88114">
        <ele>190.796814</ele>
        <time>2017-07-01T15:35:22Z</time>
      </trkpt>
      <trkpt lat="44.81112" lon="0.88114">
        <ele>190.798401</ele>
        <time>2017-07-01T15:35:31Z</time>
      </trkpt>
      <trkpt lat="44.8112" lon="0.88102">
        <ele>190.366791</ele>
        <time>2017-07-01T15:35:35Z</time>
      </trkpt>
      <trkpt lat="44.81126" lon="0.88076">
        <ele>189.727661</ele>
        <time>2017-07-01T15:35:44Z</time>
      </trkpt>
      <trkpt lat="44.81112" lon="0.88003">
        <ele>192.189087</ele>
        <time>2017-07-01T15:36:07Z</time>
      </trkpt>
      <trkpt lat="44.81093" lon="0.87932">
        <ele>188.687561</ele>
        <time>2017-07-01T15:36:22Z</time>
      </trkpt>
      <trkpt lat="44.81091" lon="0.87916">
        <ele>187.873169</ele>
        <time>2017-07-01T15:36:26Z</time>
      </trkpt>
      <trkpt lat="44.81082" lon="0.87886">
        <ele>186.422012</ele>
        <time>2017-07-01T15:36:32Z</time>
      </trkpt>
      <trkpt lat="44.81078" lon="0.8786">
        <ele>184.048523</ele>
        <time>2017-07-01T15:36:38Z</time>
      </trkpt>
      <trkpt lat="44.81077" lon="0.87815">
        <ele>179.117355</ele>
        <time>2017-07-01T15:36:49Z</time>
      </trkpt>
      <trkpt lat="44.81081" lon="0.87784">
        <ele>175.426727</ele>
        <time>2017-07-01T15:36:54Z</time>
      </trkpt>
      <trkpt lat="44.81092" lon="0.87738">
        <ele>170.0047</ele>
        <time>2017-07-01T15:37:03Z</time>
      </trkpt>
      <trkpt lat="44.81096" lon="0.87712">
        <ele>167.849121</ele>
        <time>2017-07-01T15:37:10Z</time>
      </trkpt>
      <trkpt lat="44.81101" lon="0.87696">
        <ele>166.045975</ele>
        <time>2017-07-01T15:37:14Z</time>
      </trkpt>
      <trkpt lat="44.81104" lon="0.87671">
        <ele>163.315704</ele>
        <time>2017-07-01T15:37:19Z</time>
      </trkpt>
      <trkpt lat="44.81103" lon="0.87586">
        <ele>150.6875</ele>
        <time>2017-07-01T15:37:37Z</time>
      </trkpt>
      <trkpt lat="44.81104" lon="0.87576">
        <ele>149.48085</ele>
        <time>2017-07-01T15:37:41Z</time>
      </trkpt>
      <trkpt lat="44.81116" lon="0.87542">
        <ele>144.082809</ele>
        <time>2017-07-01T15:37:54Z</time>
      </trkpt>
      <trkpt lat="44.81124" lon="0.87543">
        <ele>143.201416</ele>
        <time>2017-07-01T15:37:59Z</time>
      </trkpt>
      <trkpt lat="44.81133" lon="0.87537">
        <ele>141.339264</ele>
        <time>2017-07-01T15:38:02Z</time>
      </trkpt>
      <trkpt lat="44.81148" lon="0.87538">
        <ele>139.627731</ele>
        <time>2017-07-01T15:38:07Z</time>
      </trkpt>
      <trkpt lat="44.8115" lon="0.87534">
        <ele>139.037994</ele>
        <time>2017-07-01T15:38:09Z</time>
      </trkpt>
      <trkpt lat="44.81161" lon="0.87535">
        <ele>138.681091</ele>
        <time>2017-07-01T15:38:14Z</time>
      </trkpt>
      <trkpt lat="44.81175" lon="0.8753">
        <ele>138.364655</ele>
        <time>2017-07-01T15:38:20Z</time>
      </trkpt>
      <trkpt lat="44.81186" lon="0.87529">
        <ele>138.264877</ele>
        <time>2017-07-01T15:38:24Z</time>
      </trkpt>
      <trkpt lat="44.81189" lon="0.87532">
        <ele>138.326859</ele>
        <time>2017-07-01T15:38:25Z</time>
      </trkpt>
      <trkpt lat="44.81188" lon="0.87674">
        <ele>143.192993</ele>
        <time>2017-07-01T15:38:58Z</time>
      </trkpt>
      <trkpt lat="44.81202" lon="0.87755">
        <ele>144.374207</ele>
        <time>2017-07-01T15:39:19Z</time>
      </trkpt>
      <trkpt lat="44.81207" lon="0.87774">
        <ele>145.555313</ele>
        <time>2017-07-01T15:39:25Z</time>
      </trkpt>
      <trkpt lat="44.81223" lon="0.87773">
        <ele>146.066986</ele>
        <time>2017-07-01T15:39:30Z</time>
      </trkpt>
      <trkpt lat="44.81244" lon="0.87766">
        <ele>146.934006</ele>
        <time>2017-07-01T15:39:34Z</time>
      </trkpt>
      <trkpt lat="44.81249" lon="0.87767">
        <ele>148.222504</ele>
        <time>2017-07-01T15:39:35Z</time>
      </trkpt>
      <trkpt lat="44.81254" lon="0.87779">
        <ele>150.324997</ele>
        <time>2017-07-01T15:39:37Z</time>
      </trkpt>
      <trkpt lat="44.81255" lon="0.87797">
        <ele>150.324997</ele>
        <time>2017-07-01T15:39:40Z</time>
      </trkpt>
      <trkpt lat="44.81264" lon="0.87863">
        <ele>153.482773</ele>
        <time>2017-07-01T15:39:56Z</time>
      </trkpt>
      <trkpt lat="44.81269" lon="0.87885">
        <ele>154.896591</ele>
        <time>2017-07-01T15:40:02Z</time>
      </trkpt>
      <trkpt lat="44.81284" lon="0.87927">
        <ele>156.659683</ele>
        <time>2017-07-01T15:40:16Z</time>
      </trkpt>
      <trkpt lat="44.81308" lon="0.8797">
        <ele>158.174942</ele>
        <time>2017-07-01T15:40:34Z</time>
      </trkpt>
      <trkpt lat="44.8132" lon="0.87983">
        <ele>159.969299</ele>
        <time>2017-07-01T15:40:47Z</time>
      </trkpt>
      <trkpt lat="44.81337" lon="0.87993">
        <ele>161.981827</ele>
        <time>2017-07-01T15:41:02Z</time>
      </trkpt>
      <trkpt lat="44.81394" lon="0.88005">
        <ele>166.681259</ele>
        <time>2017-07-01T15:41:45Z</time>
      </trkpt>
      <trkpt lat="44.81411" lon="0.88015">
        <ele>167.041245</ele>
        <time>2017-07-01T15:42:00Z</time>
      </trkpt>
      <trkpt lat="44.81431" lon="0.88019">
        <ele>170.4142</ele>
        <time>2017-07-01T15:42:13Z</time>
      </trkpt>
      <trkpt lat="44.81441" lon="0.88028">
        <ele>173.17099</ele>
        <time>2017-07-01T15:42:23Z</time>
      </trkpt>
      <trkpt lat="44.81468" lon="0.88042">
        <ele>177.834976</ele>
        <time>2017-07-01T15:42:43Z</time>
      </trkpt>
      <trkpt lat="44.81487" lon="0.88065">
        <ele>179.247009</ele>
        <time>2017-07-01T15:42:55Z</time>
      </trkpt>
      <trkpt lat="44.81518" lon="0.88088">
        <ele>182.509949</ele>
        <time>2017-07-01T15:43:19Z</time>
      </trkpt>
      <trkpt lat="44.81572" lon="0.8811">
        <ele>190.059692</ele>
        <time>2017-07-01T15:43:59Z</time>
      </trkpt>
      <trkpt lat="44.81616" lon="0.88116">
        <ele>193.301254</ele>
        <time>2017-07-01T15:44:28Z</time>
      </trkpt>
      <trkpt lat="44.81633" lon="0.88108">
        <ele>195.391251</ele>
        <time>2017-07-01T15:44:40Z</time>
      </trkpt>
      <trkpt lat="44.8168" lon="0.88103">
        <ele>199.334381</ele>
        <time>2017-07-01T15:45:08Z</time>
      </trkpt>
      <trkpt lat="44.81708" lon="0.88107">
        <ele>200.78125</ele>
        <time>2017-07-01T15:45:26Z</time>
      </trkpt>
      <trkpt lat="44.81697" lon="0.88123">
        <ele>198.846878</ele>
        <time>2017-07-01T15:45:35Z</time>
      </trkpt>
      <trkpt lat="44.81666" lon="0.88178">
        <ele>194.73085</ele>
        <time>2017-07-01T15:45:51Z</time>
      </trkpt>
      <trkpt lat="44.81662" lon="0.88188">
        <ele>194.383209</ele>
        <time>2017-07-01T15:45:53Z</time>
      </trkpt>
      <trkpt lat="44.8166" lon="0.88221">
        <ele>194.917664</ele>
        <time>2017-07-01T15:46:00Z</time>
      </trkpt>
      <trkpt lat="44.81628" lon="0.88311">
        <ele>200.488754</ele>
        <time>2017-07-01T15:46:27Z</time>
      </trkpt>
      <trkpt lat="44.81617" lon="0.88332">
        <ele>201.862289</ele>
        <time>2017-07-01T15:46:34Z</time>
      </trkpt>
      <trkpt lat="44.81607" lon="0.88359">
        <ele>203.272507</ele>
        <time>2017-07-01T15:46:44Z</time>
      </trkpt>
      <trkpt lat="44.81596" lon="0.88401">
        <ele>205.399994</ele>
        <time>2017-07-01T15:46:59Z</time>
      </trkpt>
      <trkpt lat="44.8159" lon="0.88441">
        <ele>208.217499</ele>
        <time>2017-07-01T15:47:13Z</time>
      </trkpt>
      <trkpt lat="44.81582" lon="0.88468">
        <ele>210.796066</ele>
        <time>2017-07-01T15:47:24Z</time>
      </trkpt>
      <trkpt lat="44.81576" lon="0.8848">
        <ele>212.134445</ele>
        <time>2017-07-01T15:47:29Z</time>
      </trkpt>
      <trkpt lat="44.81574" lon="0.88502">
        <ele>214.333405</ele>
        <time>2017-07-01T15:47:38Z</time>
      </trkpt>
      <trkpt lat="44.81578" lon="0.88509">
        <ele>215.029953</ele>
        <time>2017-07-01T15:47:42Z</time>
      </trkpt>
      <trkpt lat="44.8159" lon="0.88539">
        <ele>218.375549</ele>
        <time>2017-07-01T15:47:58Z</time>
      </trkpt>
      <trkpt lat="44.81597" lon="0.8861">
        <ele>225.533356</ele>
        <time>2017-07-01T15:48:37Z</time>
      </trkpt>
      <trkpt lat="44.81606" lon="0.8866">
        <ele>229.63504</ele>
        <time>2017-07-01T15:49:03Z</time>
      </trkpt>
      <trkpt lat="44.81611" lon="0.88714">
        <ele>234.669571</ele>
        <time>2017-07-01T15:49:24Z</time>
      </trkpt>
      <trkpt lat="44.81609" lon="0.88834">
        <ele>239.981155</ele>
        <time>2017-07-01T15:50:05Z</time>
      </trkpt>
      <trkpt lat="44.81612" lon="0.8885">
        <ele>240.762329</ele>
        <time>2017-07-01T15:50:11Z</time>
      </trkpt>
      <trkpt lat="44.81619" lon="0.89001">
        <ele>244.164764</ele>
        <time>2017-07-01T15:50:46Z</time>
      </trkpt>
      <trkpt lat="44.81617" lon="0.89043">
        <ele>243.962494</ele>
        <time>2017-07-01T15:50:53Z</time>
      </trkpt>
      <trkpt lat="44.816" lon="0.89122">
        <ele>243.501251</ele>
        <time>2017-07-01T15:51:07Z</time>
      </trkpt>
      <trkpt lat="44.81595" lon="0.89159">
        <ele>243.178131</ele>
        <time>2017-07-01T15:51:14Z</time>
      </trkpt>
      <trkpt lat="44.81592" lon="0.89194">
        <ele>242.77063</ele>
        <time>2017-07-01T15:51:21Z</time>
      </trkpt>
      <trkpt lat="44.816" lon="0.89209">
        <ele>242.205002</ele>
        <time>2017-07-01T15:51:25Z</time>
      </trkpt>
      <trkpt lat="44.81627" lon="0.89204">
        <ele>240.854599</ele>
        <time>2017-07-01T15:51:31Z</time>
      </trkpt>
      <trkpt lat="44.81647" lon="0.89198">
        <ele>238.92662</ele>
        <time>2017-07-01T15:51:34Z</time>
      </trkpt>
      <trkpt lat="44.81682" lon="0.89179">
        <ele>235.641251</ele>
        <time>2017-07-01T15:51:39Z</time>
      </trkpt>
      <trkpt lat="44.81735" lon="0.89145">
        <ele>230.649994</ele>
        <time>2017-07-01T15:51:46Z</time>
      </trkpt>
      <trkpt lat="44.81791" lon="0.89124">
        <ele>224.4375</ele>
        <time>2017-07-01T15:51:53Z</time>
      </trkpt>
      <trkpt lat="44.81819" lon="0.89107">
        <ele>220.549454</ele>
        <time>2017-07-01T15:51:57Z</time>
      </trkpt>
      <trkpt lat="44.81947" lon="0.89062">
        <ele>213.2285</ele>
        <time>2017-07-01T15:52:14Z</time>
      </trkpt>
      <trkpt lat="44.82005" lon="0.89029">
        <ele>212.866257</ele>
        <time>2017-07-01T15:52:24Z</time>
      </trkpt>
      <trkpt lat="44.82026" lon="0.89015">
        <ele>212.906723</ele>
        <time>2017-07-01T15:52:28Z</time>
      </trkpt>
      <trkpt lat="44.82096" lon="0.88949">
        <ele>208.558014</ele>
        <time>2017-07-01T15:52:41Z</time>
      </trkpt>
      <trkpt lat="44.82113" lon="0.88941">
        <ele>206.639694</ele>
        <time>2017-07-01T15:52:44Z</time>
      </trkpt>
      <trkpt lat="44.82202" lon="0.88948">
        <ele>196.95668</ele>
        <time>2017-07-01T15:52:57Z</time>
      </trkpt>
      <trkpt lat="44.82246" lon="0.88946">
        <ele>194.820007</ele>
        <time>2017-07-01T15:53:03Z</time>
      </trkpt>
      <trkpt lat="44.8229" lon="0.88958">
        <ele>189.094711</ele>
        <time>2017-07-01T15:53:10Z</time>
      </trkpt>
      <trkpt lat="44.82321" lon="0.88962">
        <ele>184.205505</ele>
        <time>2017-07-01T15:53:16Z</time>
      </trkpt>
      <trkpt lat="44.82329" lon="0.88959">
        <ele>183.156433</ele>
        <time>2017-07-01T15:53:18Z</time>
      </trkpt>
      <trkpt lat="44.82376" lon="0.88931">
        <ele>176.001373</ele>
        <time>2017-07-01T15:53:27Z</time>
      </trkpt>
      <trkpt lat="44.82386" lon="0.88923">
        <ele>173.960007</ele>
        <time>2017-07-01T15:53:29Z</time>
      </trkpt>
      <trkpt lat="44.82392" lon="0.88911">
        <ele>172.880005</ele>
        <time>2017-07-01T15:53:31Z</time>
      </trkpt>
      <trkpt lat="44.824" lon="0.88889">
        <ele>171.440002</ele>
        <time>2017-07-01T15:53:35Z</time>
      </trkpt>
      <trkpt lat="44.82408" lon="0.88853">
        <ele>170.694366</ele>
        <time>2017-07-01T15:53:41Z</time>
      </trkpt>
      <trkpt lat="44.82412" lon="0.88813">
        <ele>171.352097</ele>
        <time>2017-07-01T15:53:48Z</time>
      </trkpt>
      <trkpt lat="44.82409" lon="0.88783">
        <ele>170.383606</ele>
        <time>2017-07-01T15:53:54Z</time>
      </trkpt>
      <trkpt lat="44.82385" lon="0.88741">
        <ele>171.940399</ele>
        <time>2017-07-01T15:54:06Z</time>
      </trkpt>
      <trkpt lat="44.82378" lon="0.88724">
        <ele>171.420807</ele>
        <time>2017-07-01T15:54:11Z</time>
      </trkpt>
      <trkpt lat="44.82365" lon="0.88703">
        <ele>170.938858</ele>
        <time>2017-07-01T15:54:17Z</time>
      </trkpt>
      <trkpt lat="44.8233" lon="0.88658">
        <ele>169.171478</ele>
        <time>2017-07-01T15:54:28Z</time>
      </trkpt>
      <trkpt lat="44.82289" lon="0.88627">
        <ele>169.436874</ele>
        <time>2017-07-01T15:54:36Z</time>
      </trkpt>
      <trkpt lat="44.82278" lon="0.88604">
        <ele>167.731781</ele>
        <time>2017-07-01T15:54:40Z</time>
      </trkpt>
      <trkpt lat="44.82274" lon="0.88584">
        <ele>165.694336</ele>
        <time>2017-07-01T15:54:44Z</time>
      </trkpt>
      <trkpt lat="44.82274" lon="0.8857">
        <ele>164.077225</ele>
        <time>2017-07-01T15:54:48Z</time>
      </trkpt>
      <trkpt lat="44.82269" lon="0.88562">
        <ele>163.732819</ele>
        <time>2017-07-01T15:54:51Z</time>
      </trkpt>
      <trkpt lat="44.82243" lon="0.88543">
        <ele>163.860168</ele>
        <time>2017-07-01T15:55:00Z</time>
      </trkpt>
      <trkpt lat="44.82213" lon="0.88523">
        <ele>164.47966</ele>
        <time>2017-07-01T15:55:09Z</time>
      </trkpt>
      <trkpt lat="44.82183" lon="0.88486">
        <ele>162.420242</ele>
        <time>2017-07-01T15:55:19Z</time>
      </trkpt>
      <trkpt lat="44.82124" lon="0.88431">
        <ele>159.505951</ele>
        <time>2017-07-01T15:55:35Z</time>
      </trkpt>
      <trkpt lat="44.82113" lon="0.88413">
        <ele>156.880096</ele>
        <time>2017-07-01T15:55:39Z</time>
      </trkpt>
      <trkpt lat="44.82106" lon="0.88392">
        <ele>153.497437</ele>
        <time>2017-07-01T15:55:44Z</time>
      </trkpt>
      <trkpt lat="44.8211" lon="0.88381">
        <ele>151.34584</ele>
        <time>2017-07-01T15:55:47Z</time>
      </trkpt>
      <trkpt lat="44.82127" lon="0.88372">
        <ele>149.770004</ele>
        <time>2017-07-01T15:55:52Z</time>
      </trkpt>
      <trkpt lat="44.822" lon="0.88373">
        <ele>145.877518</ele>
        <time>2017-07-01T15:56:11Z</time>
      </trkpt>
      <trkpt lat="44.82255" lon="0.88367">
        <ele>141.818466</ele>
        <time>2017-07-01T15:56:21Z</time>
      </trkpt>
      <trkpt lat="44.82278" lon="0.88371">
        <ele>141.221298</ele>
        <time>2017-07-01T15:56:25Z</time>
      </trkpt>
      <trkpt lat="44.82366" lon="0.88416">
        <ele>140.394928</ele>
        <time>2017-07-01T15:56:41Z</time>
      </trkpt>
      <trkpt lat="44.82401" lon="0.88443">
        <ele>138.558228</ele>
        <time>2017-07-01T15:56:49Z</time>
      </trkpt>
      <trkpt lat="44.82452" lon="0.88505">
        <ele>134.822128</ele>
        <time>2017-07-01T15:57:11Z</time>
      </trkpt>
      <trkpt lat="44.82472" lon="0.88524">
        <ele>134.034744</ele>
        <time>2017-07-01T15:57:16Z</time>
      </trkpt>
      <trkpt lat="44.82512" lon="0.88553">
        <ele>131.550751</ele>
        <time>2017-07-01T15:57:28Z</time>
      </trkpt>
      <trkpt lat="44.82541" lon="0.8859">
        <ele>131.816681</ele>
        <time>2017-07-01T15:57:38Z</time>
      </trkpt>
      <trkpt lat="44.82586" lon="0.88635">
        <ele>129.006256</ele>
        <time>2017-07-01T15:57:48Z</time>
      </trkpt>
      <trkpt lat="44.8261" lon="0.88666">
        <ele>127.745316</ele>
        <time>2017-07-01T15:57:53Z</time>
      </trkpt>
      <trkpt lat="44.82635" lon="0.88709">
        <ele>126.582497</ele>
        <time>2017-07-01T15:58:00Z</time>
      </trkpt>
      <trkpt lat="44.82669" lon="0.88758">
        <ele>124.596741</ele>
        <time>2017-07-01T15:58:10Z</time>
      </trkpt>
      <trkpt lat="44.82688" lon="0.88781">
        <ele>122.786797</ele>
        <time>2017-07-01T15:58:15Z</time>
      </trkpt>
      <trkpt lat="44.82705" lon="0.88805">
        <ele>121.717613</ele>
        <time>2017-07-01T15:58:20Z</time>
      </trkpt>
      <trkpt lat="44.8272" lon="0.88809">
        <ele>121.09552</ele>
        <time>2017-07-01T15:58:23Z</time>
      </trkpt>
      <trkpt lat="44.82737" lon="0.88819">
        <ele>120.033257</ele>
        <time>2017-07-01T15:58:27Z</time>
      </trkpt>
      <trkpt lat="44.82744" lon="0.88827">
        <ele>119.288597</ele>
        <time>2017-07-01T15:58:29Z</time>
      </trkpt>
      <trkpt lat="44.8279" lon="0.88919">
        <ele>112.443962</ele>
        <time>2017-07-01T15:58:46Z</time>
      </trkpt>
      <trkpt lat="44.82796" lon="0.88941">
        <ele>112.090988</ele>
        <time>2017-07-01T15:58:50Z</time>
      </trkpt>
      <trkpt lat="44.8282" lon="0.89064">
        <ele>111.853653</ele>
        <time>2017-07-01T15:59:09Z</time>
      </trkpt>
      <trkpt lat="44.82852" lon="0.89145">
        <ele>110.218712</ele>
        <time>2017-07-01T15:59:23Z</time>
      </trkpt>
      <trkpt lat="44.82861" lon="0.89175">
        <ele>109.363174</ele>
        <time>2017-07-01T15:59:28Z</time>
      </trkpt>
      <trkpt lat="44.82886" lon="0.89233">
        <ele>105.289589</ele>
        <time>2017-07-01T15:59:38Z</time>
      </trkpt>
      <trkpt lat="44.82898" lon="0.89267">
        <ele>104.723694</ele>
        <time>2017-07-01T15:59:44Z</time>
      </trkpt>
      <trkpt lat="44.82953" lon="0.89389">
        <ele>102.816772</ele>
        <time>2017-07-01T16:00:02Z</time>
      </trkpt>
      <trkpt lat="44.82956" lon="0.89421">
        <ele>102.376389</ele>
        <time>2017-07-01T16:00:06Z</time>
      </trkpt>
      <trkpt lat="44.82955" lon="0.89463">
        <ele>102</ele>
        <time>2017-07-01T16:00:12Z</time>
      </trkpt>
      <trkpt lat="44.8297" lon="0.89569">
        <ele>100.092163</ele>
        <time>2017-07-01T16:00:29Z</time>
      </trkpt>
      <trkpt lat="44.8299" lon="0.89647">
        <ele>99.639839</ele>
        <time>2017-07-01T16:00:42Z</time>
      </trkpt>
      <trkpt lat="44.83" lon="0.8967">
        <ele>99.317566</ele>
        <time>2017-07-01T16:00:46Z</time>
      </trkpt>
      <trkpt lat="44.83007" lon="0.89678">
        <ele>99.104805</ele>
        <time>2017-07-01T16:00:48Z</time>
      </trkpt>
      <trkpt lat="44.83054" lon="0.89726">
        <ele>94.547401</ele>
        <time>2017-07-01T16:01:02Z</time>
      </trkpt>
      <trkpt lat="44.83068" lon="0.89733">
        <ele>92.877701</ele>
        <time>2017-07-01T16:01:05Z</time>
      </trkpt>
      <trkpt lat="44.83089" lon="0.89739">
        <ele>91.642937</ele>
        <time>2017-07-01T16:01:09Z</time>
      </trkpt>
      <trkpt lat="44.83152" lon="0.89746">
        <ele>91</ele>
        <time>2017-07-01T16:01:20Z</time>
      </trkpt>
      <trkpt lat="44.83195" lon="0.89755">
        <ele>90.673607</ele>
        <time>2017-07-01T16:01:28Z</time>
      </trkpt>
      <trkpt lat="44.83258" lon="0.89753">
        <ele>89.615089</ele>
        <time>2017-07-01T16:01:41Z</time>
      </trkpt>
      <trkpt lat="44.83316" lon="0.89757">
        <ele>91.502182</ele>
        <time>2017-07-01T16:01:56Z</time>
      </trkpt>
      <trkpt lat="44.83362" lon="0.89779">
        <ele>92.415871</ele>
        <time>2017-07-01T16:02:07Z</time>
      </trkpt>
      <trkpt lat="44.83396" lon="0.89792">
        <ele>91.362068</ele>
        <time>2017-07-01T16:02:15Z</time>
      </trkpt>
      <trkpt lat="44.8342" lon="0.89796">
        <ele>90.5382</ele>
        <time>2017-07-01T16:02:20Z</time>
      </trkpt>
      <trkpt lat="44.83508" lon="0.89796">
        <ele>89.282501</ele>
        <time>2017-07-01T16:02:39Z</time>
      </trkpt>
      <trkpt lat="44.83535" lon="0.89799">
        <ele>88.49881</ele>
        <time>2017-07-01T16:02:45Z</time>
      </trkpt>
      <trkpt lat="44.83555" lon="0.89807">
        <ele>87.632347</ele>
        <time>2017-07-01T16:02:49Z</time>
      </trkpt>
      <trkpt lat="44.83583" lon="0.89828">
        <ele>88.334595</ele>
        <time>2017-07-01T16:02:57Z</time>
      </trkpt>
      <trkpt lat="44.83596" lon="0.8984">
        <ele>88.524284</ele>
        <time>2017-07-01T16:03:00Z</time>
      </trkpt>
      <trkpt lat="44.83649" lon="0.89919">
        <ele>84.482597</ele>
        <time>2017-07-01T16:03:16Z</time>
      </trkpt>
      <trkpt lat="44.83671" lon="0.89941">
        <ele>84.293404</ele>
        <time>2017-07-01T16:03:22Z</time>
      </trkpt>
      <trkpt lat="44.83726" lon="0.89977">
        <ele>82.116875</ele>
        <time>2017-07-01T16:03:34Z</time>
      </trkpt>
      <trkpt lat="44.83745" lon="0.89985">
        <ele>82.433441</ele>
        <time>2017-07-01T16:03:39Z</time>
      </trkpt>
      <trkpt lat="44.83754" lon="0.89993">
        <ele>82.768341</ele>
        <time>2017-07-01T16:03:42Z</time>
      </trkpt>
      <trkpt lat="44.83801" lon="0.90055">
        <ele>80.031883</ele>
        <time>2017-07-01T16:03:55Z</time>
      </trkpt>
      <trkpt lat="44.8385" lon="0.90089">
        <ele>78.487709</ele>
        <time>2017-07-01T16:04:09Z</time>
      </trkpt>
      <trkpt lat="44.83861" lon="0.90101">
        <ele>76.539238</ele>
        <time>2017-07-01T16:04:12Z</time>
      </trkpt>
      <trkpt lat="44.83879" lon="0.90103">
        <ele>88</ele>
        <time>2019-06-01T08:04:08Z</time>
      </trkpt>
      <trkpt lat="44.839" lon="0.9012">
        <ele>87</ele>
        <time>2019-06-01T08:04:02Z</time>
      </trkpt>
      <trkpt lat="44.83935" lon="0.90126">
        <ele>86</ele>
        <time>2019-06-01T08:03:54Z</time>
      </trkpt>
      <trkpt lat="44.83976" lon="0.9014">
        <ele>84</ele>
        <time>2019-06-01T08:03:44Z</time>
      </trkpt>
      <trkpt lat="44.84018" lon="0.90146">
        <ele>83</ele>
        <time>2019-06-01T08:03:34Z</time>
      </trkpt>
      <trkpt lat="44.84054" lon="0.90148">
        <ele>85</ele>
        <time>2019-06-01T08:03:26Z</time>
      </trkpt>
      <trkpt lat="44.84178" lon="0.90177">
        <ele>81</ele>
        <time>2019-06-01T08:02:56Z</time>
      </trkpt>
      <trkpt lat="44.84224" lon="0.90177">
        <ele>82</ele>
        <time>2019-06-01T08:02:46Z</time>
      </trkpt>
      <trkpt lat="44.84268" lon="0.90163">
        <ele>83</ele>
        <time>2019-06-01T08:02:35Z</time>
      </trkpt>
      <trkpt lat="44.84284" lon="0.90138">
        <ele>86</ele>
        <time>2019-06-01T08:02:29Z</time>
      </trkpt>
      <trkpt lat="44.84299" lon="0.90101">
        <ele>89</ele>
        <time>2019-06-01T08:02:22Z</time>
      </trkpt>
      <trkpt lat="44.84317" lon="0.90072">
        <ele>91</ele>
        <time>2019-06-01T08:02:16Z</time>
      </trkpt>
      <trkpt lat="44.8433" lon="0.90124">
        <ele>83</ele>
        <time>2019-06-01T08:02:07Z</time>
      </trkpt>
      <trkpt lat="44.84351" lon="0.90134">
        <ele>81</ele>
        <time>2019-06-01T08:02:02Z</time>
      </trkpt>
      <trkpt lat="44.84449" lon="0.90157">
        <ele>75</ele>
        <time>2019-06-01T08:01:38Z</time>
      </trkpt>
      <trkpt lat="44.84479" lon="0.90179">
        <ele>73</ele>
        <time>2019-06-01T08:01:31Z</time>
      </trkpt>
      <trkpt lat="44.84554" lon="0.90243">
        <ele>71</ele>
        <time>2019-06-01T08:01:10Z</time>
      </trkpt>
      <trkpt lat="44.84651" lon="0.90302">
        <ele>70</ele>
        <time>2019-06-01T08:00:45Z</time>
      </trkpt>
      <trkpt lat="44.84605" lon="0.90493">
        <ele>63</ele>
        <time>2019-06-01T08:00:12Z</time>
      </trkpt>
      <trkpt lat="44.84624" lon="0.90586">
        <ele>61</ele>
        <time>2019-06-01T07:59:56Z</time>
      </trkpt>
      <trkpt lat="44.84576" lon="0.90706">
        <ele>63</ele>
        <time>2019-06-01T07:59:33Z</time>
      </trkpt>
      <trkpt lat="44.84527" lon="0.90855">
        <ele>68</ele>
        <time>2019-06-01T07:59:06Z</time>
      </trkpt>
      <trkpt lat="44.84521" lon="0.90916">
        <ele>68.1175</ele>
        <time>2017-07-01T11:31:33Z</time>
      </trkpt>
      <trkpt lat="44.84508" lon="0.90922">
        <ele>68.400002</ele>
        <time>2017-07-01T11:31:46Z</time>
      </trkpt>
      <trkpt lat="44.84503" lon="0.90928">
        <ele>68.522499</ele>
        <time>2017-07-01T11:31:49Z</time>
      </trkpt>
      <trkpt lat="44.84499" lon="0.90937">
        <ele>68.595001</ele>
        <time>2017-07-01T11:31:52Z</time>
      </trkpt>
      <trkpt lat="44.84492" lon="0.90946">
        <ele>68.754997</ele>
        <time>2017-07-01T11:31:57Z</time>
      </trkpt>
      <trkpt lat="44.84478" lon="0.90936">
        <ele>69.139999</ele>
        <time>2017-07-01T11:32:04Z</time>
      </trkpt>
      <trkpt lat="44.84454" lon="0.90915">
        <ele>70.195</ele>
        <time>2017-07-01T11:32:16Z</time>
      </trkpt>
      <trkpt lat="44.84442" lon="0.90917">
        <ele>70.735001</ele>
        <time>2017-07-01T11:32:28Z</time>
      </trkpt>
      <trkpt lat="44.84438" lon="0.90923">
        <ele>70.915001</ele>
        <time>2017-07-01T11:32:33Z</time>
      </trkpt>
      <trkpt lat="44.84418" lon="0.90979">
        <ele>71.830002</ele>
        <time>2017-07-01T11:32:47Z</time>
      </trkpt>
      <trkpt lat="44.84412" lon="0.91004">
        <ele>72.105003</ele>
        <time>2017-07-01T11:32:52Z</time>
      </trkpt>
      <trkpt lat="44.84406" lon="0.91016">
        <ele>72.404999</ele>
        <time>2017-07-01T11:32:56Z</time>
      </trkpt>
      <trkpt lat="44.84402" lon="0.91036">
        <ele>72.599998</ele>
        <time>2017-07-01T11:33:14Z</time>
      </trkpt>
      <trkpt lat="44.84381" lon="0.91108">
        <ele>73.903397</ele>
        <time>2017-07-01T11:33:28Z</time>
      </trkpt>
      <trkpt lat="44.84375" lon="0.91114">
        <ele>74.330284</ele>
        <time>2017-07-01T11:33:30Z</time>
      </trkpt>
      <trkpt lat="44.84333" lon="0.9109">
        <ele>76.695</ele>
        <time>2017-07-01T11:33:44Z</time>
      </trkpt>
      <trkpt lat="44.84327" lon="0.9109">
        <ele>76.940002</ele>
        <time>2017-07-01T11:33:46Z</time>
      </trkpt>
      <trkpt lat="44.84319" lon="0.91096">
        <ele>77.285004</ele>
        <time>2017-07-01T11:33:49Z</time>
      </trkpt>
      <trkpt lat="44.84294" lon="0.91208">
        <ele>79.2425</ele>
        <time>2017-07-01T11:34:14Z</time>
      </trkpt>
      <trkpt lat="44.84268" lon="0.91266">
        <ele>79.744041</ele>
        <time>2017-07-01T11:34:25Z</time>
      </trkpt>
      <trkpt lat="44.84206" lon="0.91383">
        <ele>80.94191</ele>
        <time>2017-07-01T11:34:50Z</time>
      </trkpt>
      <trkpt lat="44.84105" lon="0.91586">
        <ele>84.807678</ele>
        <time>2017-07-01T11:35:33Z</time>
      </trkpt>
      <trkpt lat="44.84062" lon="0.91683">
        <ele>79.989372</ele>
        <time>2017-07-01T11:35:47Z</time>
      </trkpt>
      <trkpt lat="44.8405" lon="0.91741">
        <ele>74.154503</ele>
        <time>2017-07-01T11:35:52Z</time>
      </trkpt>
      <trkpt lat="44.8404" lon="0.91763">
        <ele>72.101723</ele>
        <time>2017-07-01T11:35:54Z</time>
      </trkpt>
      <trkpt lat="44.84034" lon="0.9177">
        <ele>71.542343</ele>
        <time>2017-07-01T11:35:55Z</time>
      </trkpt>
      <trkpt lat="44.83999" lon="0.91786">
        <ele>70.242989</ele>
        <time>2017-07-01T11:35:59Z</time>
      </trkpt>
      <trkpt lat="44.83983" lon="0.918">
        <ele>68.471474</ele>
        <time>2017-07-01T11:36:01Z</time>
      </trkpt>
      <trkpt lat="44.83969" lon="0.91817">
        <ele>66.739998</ele>
        <time>2017-07-01T11:36:03Z</time>
      </trkpt>
      <trkpt lat="44.83958" lon="0.91837">
        <ele>65.239998</ele>
        <time>2017-07-01T11:36:05Z</time>
      </trkpt>
      <trkpt lat="44.83951" lon="0.91858">
        <ele>63.865002</ele>
        <time>2017-07-01T11:36:07Z</time>
      </trkpt>
      <trkpt lat="44.83946" lon="0.91888">
        <ele>65.891251</ele>
        <time>2017-07-01T11:36:11Z</time>
      </trkpt>
      <trkpt lat="44.8394" lon="0.91896">
        <ele>67.206253</ele>
        <time>2017-07-01T11:36:13Z</time>
      </trkpt>
      <trkpt lat="44.83873" lon="0.91901">
        <ele>68.596848</ele>
        <time>2017-07-01T11:36:30Z</time>
      </trkpt>
      <trkpt lat="44.83851" lon="0.91907">
        <ele>68.964836</ele>
        <time>2017-07-01T11:36:37Z</time>
      </trkpt>
      <trkpt lat="44.83834" lon="0.91915">
        <ele>69.072433</ele>
        <time>2017-07-01T11:36:42Z</time>
      </trkpt>
      <trkpt lat="44.83819" lon="0.91929">
        <ele>68.85405</ele>
        <time>2017-07-01T11:36:47Z</time>
      </trkpt>
      <trkpt lat="44.8377" lon="0.91988">
        <ele>70.197601</ele>
        <time>2017-07-01T11:37:07Z</time>
      </trkpt>
      <trkpt lat="44.83733" lon="0.92055">
        <ele>71.076965</ele>
        <time>2017-07-01T11:37:30Z</time>
      </trkpt>
      <trkpt lat="44.83724" lon="0.92074">
        <ele>72.556984</ele>
        <time>2017-07-01T11:37:36Z</time>
      </trkpt>
      <trkpt lat="44.83691" lon="0.92131">
        <ele>74.372505</ele>
        <time>2017-07-01T11:37:56Z</time>
      </trkpt>
      <trkpt lat="44.83676" lon="0.92135">
        <ele>73.852188</ele>
        <time>2017-07-01T11:38:00Z</time>
      </trkpt>
      <trkpt lat="44.83666" lon="0.92134">
        <ele>73.80867</ele>
        <time>2017-07-01T11:38:02Z</time>
      </trkpt>
      <trkpt lat="44.83636" lon="0.92121">
        <ele>74.790001</ele>
        <time>2017-07-01T11:38:09Z</time>
      </trkpt>
      <trkpt lat="44.83595" lon="0.92115">
        <ele>79.35125</ele>
        <time>2017-07-01T11:38:22Z</time>
      </trkpt>
      <trkpt lat="44.83589" lon="0.92116">
        <ele>79.603752</ele>
        <time>2017-07-01T11:38:25Z</time>
      </trkpt>
      <trkpt lat="44.83547" lon="0.92108">
        <ele>81.428902</ele>
        <time>2017-07-01T11:38:46Z</time>
      </trkpt>
      <trkpt lat="44.83505" lon="0.92087">
        <ele>81.278366</ele>
        <time>2017-07-01T11:39:06Z</time>
      </trkpt>
      <trkpt lat="44.83497" lon="0.92085">
        <ele>81.464836</ele>
        <time>2017-07-01T11:39:11Z</time>
      </trkpt>
      <trkpt lat="44.83425" lon="0.92119">
        <ele>85.050003</ele>
        <time>2017-07-01T11:39:46Z</time>
      </trkpt>
      <trkpt lat="44.83399" lon="0.92125">
        <ele>86.972237</ele>
        <time>2017-07-01T11:39:57Z</time>
      </trkpt>
      <trkpt lat="44.83372" lon="0.92119">
        <ele>88.954613</ele>
        <time>2017-07-01T11:40:09Z</time>
      </trkpt>
      <trkpt lat="44.83365" lon="0.92123">
        <ele>89.919304</ele>
        <time>2017-07-01T11:40:12Z</time>
      </trkpt>
      <trkpt lat="44.83351" lon="0.92153">
        <ele>92.037498</ele>
        <time>2017-07-01T11:40:21Z</time>
      </trkpt>
      <trkpt lat="44.83345" lon="0.92154">
        <ele>92.856247</ele>
        <time>2017-07-01T11:40:24Z</time>
      </trkpt>
      <trkpt lat="44.83315" lon="0.9214">
        <ele>96.368866</ele>
        <time>2017-07-01T11:40:39Z</time>
      </trkpt>
      <trkpt lat="44.83287" lon="0.92124">
        <ele>99.421265</ele>
        <time>2017-07-01T11:40:56Z</time>
      </trkpt>
      <trkpt lat="44.83276" lon="0.92115">
        <ele>100.550728</ele>
        <time>2017-07-01T11:41:04Z</time>
      </trkpt>
      <trkpt lat="44.83268" lon="0.92114">
        <ele>101.416702</ele>
        <time>2017-07-01T11:41:09Z</time>
      </trkpt>
      <trkpt lat="44.8324" lon="0.92158">
        <ele>104.76342</ele>
        <time>2017-07-01T11:41:35Z</time>
      </trkpt>
      <trkpt lat="44.83212" lon="0.92196">
        <ele>105.679665</ele>
        <time>2017-07-01T11:41:48Z</time>
      </trkpt>
      <trkpt lat="44.83167" lon="0.92245">
        <ele>106.247505</ele>
        <time>2017-07-01T11:41:59Z</time>
      </trkpt>
      <trkpt lat="44.83039" lon="0.92393">
        <ele>112.741455</ele>
        <time>2017-07-01T11:42:44Z</time>
      </trkpt>
      <trkpt lat="44.83033" lon="0.92403">
        <ele>113.6716</ele>
        <time>2017-07-01T11:42:48Z</time>
      </trkpt>
      <trkpt lat="44.83031" lon="0.92412">
        <ele>113.879372</ele>
        <time>2017-07-01T11:42:51Z</time>
      </trkpt>
      <trkpt lat="44.83038" lon="0.92425">
        <ele>113.033035</ele>
        <time>2017-07-01T11:42:55Z</time>
      </trkpt>
      <trkpt lat="44.83091" lon="0.92472">
        <ele>109.854927</ele>
        <time>2017-07-01T11:43:08Z</time>
      </trkpt>
      <trkpt lat="44.83151" lon="0.92531">
        <ele>105.93956</ele>
        <time>2017-07-01T11:43:21Z</time>
      </trkpt>
      <trkpt lat="44.83164" lon="0.92547">
        <ele>104.926163</ele>
        <time>2017-07-01T11:43:24Z</time>
      </trkpt>
      <trkpt lat="44.83184" lon="0.9259">
        <ele>103.185326</ele>
        <time>2017-07-01T11:43:30Z</time>
      </trkpt>
      <trkpt lat="44.83189" lon="0.92596">
        <ele>102.329002</ele>
        <time>2017-07-01T11:43:31Z</time>
      </trkpt>
      <trkpt lat="44.83346" lon="0.92661">
        <ele>92.292503</ele>
        <time>2017-07-01T11:43:52Z</time>
      </trkpt>
      <trkpt lat="44.83368" lon="0.9268">
        <ele>90.262497</ele>
        <time>2017-07-01T11:43:56Z</time>
      </trkpt>
      <trkpt lat="44.8338" lon="0.92698">
        <ele>88.093254</ele>
        <time>2017-07-01T11:44:00Z</time>
      </trkpt>
      <trkpt lat="44.83381" lon="0.92706">
        <ele>87.119324</ele>
        <time>2017-07-01T11:44:03Z</time>
      </trkpt>
      <trkpt lat="44.83358" lon="0.92717">
        <ele>85.56218</ele>
        <time>2017-07-01T11:44:11Z</time>
      </trkpt>
      <trkpt lat="44.83341" lon="0.92787">
        <ele>82.102425</ele>
        <time>2017-07-01T11:44:25Z</time>
      </trkpt>
      <trkpt lat="44.83337" lon="0.92793">
        <ele>82.992386</ele>
        <time>2017-07-01T11:44:28Z</time>
      </trkpt>
      <trkpt lat="44.83307" lon="0.92801">
        <ele>85.309319</ele>
        <time>2017-07-01T11:44:43Z</time>
      </trkpt>
      <trkpt lat="44.83271" lon="0.92817">
        <ele>90.028282</ele>
        <time>2017-07-01T11:45:05Z</time>
      </trkpt>
      <trkpt lat="44.83247" lon="0.92824">
        <ele>92.758057</ele>
        <time>2017-07-01T11:45:18Z</time>
      </trkpt>
      <trkpt lat="44.83206" lon="0.92843">
        <ele>98.020782</ele>
        <time>2017-07-01T11:45:37Z</time>
      </trkpt>
      <trkpt lat="44.8318" lon="0.92849">
        <ele>99.929214</ele>
        <time>2017-07-01T11:45:51Z</time>
      </trkpt>
      <trkpt lat="44.83137" lon="0.92838">
        <ele>101.961876</ele>
        <time>2017-07-01T11:46:09Z</time>
      </trkpt>
      <trkpt lat="44.83083" lon="0.92832">
        <ele>104.188057</ele>
        <time>2017-07-01T11:46:29Z</time>
      </trkpt>
      <trkpt lat="44.83024" lon="0.92818">
        <ele>106.244598</ele>
        <time>2017-07-01T11:46:51Z</time>
      </trkpt>
      <trkpt lat="44.82974" lon="0.92799">
        <ele>107.140648</ele>
        <time>2017-07-01T11:47:08Z</time>
      </trkpt>
      <trkpt lat="44.82952" lon="0.92797">
        <ele>106.757668</ele>
        <time>2017-07-01T11:47:15Z</time>
      </trkpt>
      <trkpt lat="44.82927" lon="0.92802">
        <ele>106.791519</ele>
        <time>2017-07-01T11:47:23Z</time>
      </trkpt>
      <trkpt lat="44.82912" lon="0.92814">
        <ele>107.589638</ele>
        <time>2017-07-01T11:47:28Z</time>
      </trkpt>
      <trkpt lat="44.82903" lon="0.92839">
        <ele>110.17588</ele>
        <time>2017-07-01T11:47:33Z</time>
      </trkpt>
      <trkpt lat="44.82892" lon="0.92888">
        <ele>113.48349</ele>
        <time>2017-07-01T11:47:43Z</time>
      </trkpt>
      <trkpt lat="44.82883" lon="0.92904">
        <ele>114.615959</ele>
        <time>2017-07-01T11:47:48Z</time>
      </trkpt>
      <trkpt lat="44.82873" lon="0.92912">
        <ele>115.050781</ele>
        <time>2017-07-01T11:47:52Z</time>
      </trkpt>
      <trkpt lat="44.82849" lon="0.92925">
        <ele>115.621536</ele>
        <time>2017-07-01T11:48:01Z</time>
      </trkpt>
      <trkpt lat="44.82804" lon="0.92955">
        <ele>118.206718</ele>
        <time>2017-07-01T11:48:16Z</time>
      </trkpt>
      <trkpt lat="44.82784" lon="0.92972">
        <ele>119.238625</ele>
        <time>2017-07-01T11:48:23Z</time>
      </trkpt>
      <trkpt lat="44.82772" lon="0.92975">
        <ele>119.564911</ele>
        <time>2017-07-01T11:48:27Z</time>
      </trkpt>
      <trkpt lat="44.8272" lon="0.92978">
        <ele>121.486336</ele>
        <time>2017-07-01T11:48:45Z</time>
      </trkpt>
      <trkpt lat="44.82666" lon="0.92973">
        <ele>123.78125</ele>
        <time>2017-07-01T11:49:04Z</time>
      </trkpt>
      <trkpt lat="44.82612" lon="0.92963">
        <ele>126.179459</ele>
        <time>2017-07-01T11:49:25Z</time>
      </trkpt>
      <trkpt lat="44.8257" lon="0.92951">
        <ele>127.521873</ele>
        <time>2017-07-01T11:49:40Z</time>
      </trkpt>
      <trkpt lat="44.82549" lon="0.92937">
        <ele>128.215622</ele>
        <time>2017-07-01T11:49:48Z</time>
      </trkpt>
      <trkpt lat="44.8253" lon="0.92914">
        <ele>128.859116</ele>
        <time>2017-07-01T11:49:57Z</time>
      </trkpt>
      <trkpt lat="44.82515" lon="0.92899">
        <ele>129.326508</ele>
        <time>2017-07-01T11:50:03Z</time>
      </trkpt>
      <trkpt lat="44.82495" lon="0.92888">
        <ele>130.296051</ele>
        <time>2017-07-01T11:50:10Z</time>
      </trkpt>
      <trkpt lat="44.82479" lon="0.92888">
        <ele>131.17482</ele>
        <time>2017-07-01T11:50:16Z</time>
      </trkpt>
      <trkpt lat="44.82453" lon="0.92913">
        <ele>132.408966</ele>
        <time>2017-07-01T11:50:27Z</time>
      </trkpt>
      <trkpt lat="44.82439" lon="0.92932">
        <ele>132.599045</ele>
        <time>2017-07-01T11:50:33Z</time>
      </trkpt>
      <trkpt lat="44.82427" lon="0.92965">
        <ele>132.363754</ele>
        <time>2017-07-01T11:50:40Z</time>
      </trkpt>
      <trkpt lat="44.82421" lon="0.92987">
        <ele>132.020004</ele>
        <time>2017-07-01T11:50:43Z</time>
      </trkpt>
      <trkpt lat="44.82398" lon="0.93048">
        <ele>130.735626</ele>
        <time>2017-07-01T11:50:52Z</time>
      </trkpt>
      <trkpt lat="44.8237" lon="0.93155">
        <ele>134.133499</ele>
        <time>2017-07-01T11:51:13Z</time>
      </trkpt>
      <trkpt lat="44.8237" lon="0.93175">
        <ele>134.290802</ele>
        <time>2017-07-01T11:51:19Z</time>
      </trkpt>
      <trkpt lat="44.82377" lon="0.93225">
        <ele>134.180801</ele>
        <time>2017-07-01T11:51:30Z</time>
      </trkpt>
      <trkpt lat="44.82377" lon="0.93243">
        <ele>134.161255</ele>
        <time>2017-07-01T11:51:33Z</time>
      </trkpt>
      <trkpt lat="44.82371" lon="0.93252">
        <ele>134.247498</ele>
        <time>2017-07-01T11:51:35Z</time>
      </trkpt>
      <trkpt lat="44.8236" lon="0.93258">
        <ele>134.831253</ele>
        <time>2017-07-01T11:51:38Z</time>
      </trkpt>
      <trkpt lat="44.82353" lon="0.93275">
        <ele>134.798752</ele>
        <time>2017-07-01T11:51:42Z</time>
      </trkpt>
      <trkpt lat="44.8237" lon="0.93305">
        <ele>132.659378</ele>
        <time>2017-07-01T11:51:47Z</time>
      </trkpt>
      <trkpt lat="44.82382" lon="0.9332">
        <ele>131.127502</ele>
        <time>2017-07-01T11:51:49Z</time>
      </trkpt>
      <trkpt lat="44.82414" lon="0.93348">
        <ele>127.965813</ele>
        <time>2017-07-01T11:51:53Z</time>
      </trkpt>
      <trkpt lat="44.82421" lon="0.93357">
        <ele>127.256653</ele>
        <time>2017-07-01T11:51:54Z</time>
      </trkpt>
      <trkpt lat="44.82429" lon="0.9338">
        <ele>126.027985</ele>
        <time>2017-07-01T11:51:56Z</time>
      </trkpt>
      <trkpt lat="44.8243" lon="0.93486">
        <ele>123.398125</ele>
        <time>2017-07-01T11:52:05Z</time>
      </trkpt>
      <trkpt lat="44.82438" lon="0.93534">
        <ele>124.571251</ele>
        <time>2017-07-01T11:52:10Z</time>
      </trkpt>
      <trkpt lat="44.82454" lon="0.9359">
        <ele>126.687386</ele>
        <time>2017-07-01T11:52:17Z</time>
      </trkpt>
      <trkpt lat="44.82477" lon="0.93661">
        <ele>128.055008</ele>
        <time>2017-07-01T11:52:27Z</time>
      </trkpt>
      <trkpt lat="44.82477" lon="0.93668">
        <ele>128.179993</ele>
        <time>2017-07-01T11:52:28Z</time>
      </trkpt>
      <trkpt lat="44.82473" lon="0.93673">
        <ele>128.353119</ele>
        <time>2017-07-01T11:52:29Z</time>
      </trkpt>
      <trkpt lat="44.82458" lon="0.9368">
        <ele>128.610931</ele>
        <time>2017-07-01T11:52:32Z</time>
      </trkpt>
      <trkpt lat="44.82432" lon="0.93696">
        <ele>128.616089</ele>
        <time>2017-07-01T11:52:38Z</time>
      </trkpt>
      <trkpt lat="44.82403" lon="0.93722">
        <ele>130.673355</ele>
        <time>2017-07-01T11:52:46Z</time>
      </trkpt>
      <trkpt lat="44.82387" lon="0.93727">
        <ele>131.828995</ele>
        <time>2017-07-01T11:52:51Z</time>
      </trkpt>
      <trkpt lat="44.82339" lon="0.93719">
        <ele>135.36618</ele>
        <time>2017-07-01T11:53:08Z</time>
      </trkpt>
      <trkpt lat="44.82287" lon="0.93726">
        <ele>138.506912</ele>
        <time>2017-07-01T11:53:27Z</time>
      </trkpt>
      <trkpt lat="44.82268" lon="0.93725">
        <ele>140.363159</ele>
        <time>2017-07-01T11:53:34Z</time>
      </trkpt>
      <trkpt lat="44.82236" lon="0.93735">
        <ele>140.511932</ele>
        <time>2017-07-01T11:53:44Z</time>
      </trkpt>
      <trkpt lat="44.82217" lon="0.93732">
        <ele>141.040344</ele>
        <time>2017-07-01T11:53:49Z</time>
      </trkpt>
      <trkpt lat="44.82202" lon="0.93723">
        <ele>141.576935</ele>
        <time>2017-07-01T11:53:54Z</time>
      </trkpt>
      <trkpt lat="44.82177" lon="0.93713">
        <ele>141.792847</ele>
        <time>2017-07-01T11:54:01Z</time>
      </trkpt>
      <trkpt lat="44.82153" lon="0.93692">
        <ele>142.514526</ele>
        <time>2017-07-01T11:54:08Z</time>
      </trkpt>
      <trkpt lat="44.82135" lon="0.93666">
        <ele>142.985641</ele>
        <time>2017-07-01T11:54:15Z</time>
      </trkpt>
      <trkpt lat="44.82134" lon="0.9363">
        <ele>145.664063</ele>
        <time>2017-07-01T11:54:23Z</time>
      </trkpt>
      <trkpt lat="44.82126" lon="0.93574">
        <ele>146.169006</ele>
        <time>2017-07-01T11:54:35Z</time>
      </trkpt>
      <trkpt lat="44.82117" lon="0.93553">
        <ele>145.762375</ele>
        <time>2017-07-01T11:54:40Z</time>
      </trkpt>
      <trkpt lat="44.82114" lon="0.93551">
        <ele>145.574753</ele>
        <time>2017-07-01T11:54:41Z</time>
      </trkpt>
      <trkpt lat="44.82101" lon="0.93549">
        <ele>144.380997</ele>
        <time>2017-07-01T11:54:45Z</time>
      </trkpt>
      <trkpt lat="44.82075" lon="0.9354">
        <ele>143.912659</ele>
        <time>2017-07-01T11:54:51Z</time>
      </trkpt>
      <trkpt lat="44.82055" lon="0.93536">
        <ele>144.617615</ele>
        <time>2017-07-01T11:54:55Z</time>
      </trkpt>
      <trkpt lat="44.82002" lon="0.93539">
        <ele>147.117783</ele>
        <time>2017-07-01T11:55:07Z</time>
      </trkpt>
      <trkpt lat="44.81972" lon="0.93535">
        <ele>144.844757</ele>
        <time>2017-07-01T11:55:14Z</time>
      </trkpt>
      <trkpt lat="44.81917" lon="0.93521">
        <ele>139.978317</ele>
        <time>2017-07-01T11:55:29Z</time>
      </trkpt>
      <trkpt lat="44.81832" lon="0.93476">
        <ele>138.038742</ele>
        <time>2017-07-01T11:55:49Z</time>
      </trkpt>
      <trkpt lat="44.81785" lon="0.93468">
        <ele>132.59494</ele>
        <time>2017-07-01T11:55:56Z</time>
      </trkpt>
      <trkpt lat="44.8171" lon="0.93467">
        <ele>121.983093</ele>
        <time>2017-07-01T11:56:05Z</time>
      </trkpt>
      <trkpt lat="44.81694" lon="0.93464">
        <ele>119.997841</ele>
        <time>2017-07-01T11:56:07Z</time>
      </trkpt>
      <trkpt lat="44.81662" lon="0.93453">
        <ele>115.972504</ele>
        <time>2017-07-01T11:56:11Z</time>
      </trkpt>
      <trkpt lat="44.81628" lon="0.93432">
        <ele>111.350731</ele>
        <time>2017-07-01T11:56:16Z</time>
      </trkpt>
      <trkpt lat="44.81622" lon="0.93432">
        <ele>111.2603</ele>
        <time>2017-07-01T11:56:17Z</time>
      </trkpt>
      <trkpt lat="44.81613" lon="0.93439">
        <ele>110.271561</ele>
        <time>2017-07-01T11:56:19Z</time>
      </trkpt>
      <trkpt lat="44.81591" lon="0.93466">
        <ele>111.717995</ele>
        <time>2017-07-01T11:56:25Z</time>
      </trkpt>
      <trkpt lat="44.81586" lon="0.93476">
        <ele>113.320053</ele>
        <time>2017-07-01T11:56:28Z</time>
      </trkpt>
      <trkpt lat="44.81587" lon="0.93491">
        <ele>114.827095</ele>
        <time>2017-07-01T11:56:32Z</time>
      </trkpt>
      <trkpt lat="44.81601" lon="0.93524">
        <ele>117.667999</ele>
        <time>2017-07-01T11:56:46Z</time>
      </trkpt>
      <trkpt lat="44.81621" lon="0.93553">
        <ele>120.763062</ele>
        <time>2017-07-01T11:57:02Z</time>
      </trkpt>
      <trkpt lat="44.81627" lon="0.93566">
        <ele>122.059395</ele>
        <time>2017-07-01T11:57:08Z</time>
      </trkpt>
      <trkpt lat="44.81665" lon="0.93626">
        <ele>129.560242</ele>
        <time>2017-07-01T11:57:47Z</time>
      </trkpt>
      <trkpt lat="44.81683" lon="0.93661">
        <ele>132.326126</ele>
        <time>2017-07-01T11:58:10Z</time>
      </trkpt>
      <trkpt lat="44.817" lon="0.937">
        <ele>137.259796</ele>
        <time>2017-07-01T11:58:30Z</time>
      </trkpt>
      <trkpt lat="44.81708" lon="0.93713">
        <ele>137.3984375</ele>
      </trkpt>
      <trkpt lat="44.81741" lon="0.93733">
        <ele>136.2734375</ele>
      </trkpt>
      <trkpt lat="44.81772" lon="0.93754">
        <ele>136.48046875</ele>
      </trkpt>
      <trkpt lat="44.81792" lon="0.93773">
        <ele>136.77734375</ele>
      </trkpt>
      <trkpt lat="44.81809" lon="0.93794">
        <ele>136.87890625</ele>
      </trkpt>
      <trkpt lat="44.81822" lon="0.93811">
        <ele>137.328125</ele>
      </trkpt>
      <trkpt lat="44.81839" lon="0.93835">
        <ele>137.37890625</ele>
      </trkpt>
    </trkseg>
  </trk>
</gpx>